<?xml version="1.0" encoding="UTF-8" standalone="no" ?>
<gpx xmlns="http://www.topografix.com/GPX/1/1" xmlns:xsi="http://www.w3.org/2001/XMLSchema-instance" xsi:schemaLocation="http://www.topografix.com/GPX/1/1 http://www.topografix.com/GPX/1/1/gpx.xsd" version="1.1" creator="VisuGPX - https://www.visugpx.com">
  <metadata>
    <name>Sentier de l'Adour (7)</name>
    <desc><![CDATA[Sixième tronçon tronçon du sentier de l'Adour entre Préchac et Cahuzac. Ce parcours a été fait en Aller-Retour depuis Maubourguet (voir par ailleurs). Seul l'Aller figure ici

]]></desc>
  </metadata>
  <trk>
    <name><![CDATA[24 févr. 2021 à 08:52:16]]></name>
    <cmt><![CDATA[24 févr. 2021 à 08:52:16]]></cmt>
    <trkseg>
      <trkpt lat="43.60446" lon="-0.00557">
        <ele>132</ele>
        <time>2021-02-24T07:52:17Z</time>
      </trkpt>
      <trkpt lat="43.60443" lon="-0.00552">
        <ele>131</ele>
        <time>2021-02-24T07:52:36Z</time>
      </trkpt>
      <trkpt lat="43.60448" lon="-0.0055">
        <ele>131</ele>
        <time>2021-02-24T07:52:59Z</time>
      </trkpt>
      <trkpt lat="43.60444" lon="-0.00552">
        <ele>131</ele>
        <time>2021-02-24T07:54:31Z</time>
      </trkpt>
      <trkpt lat="43.60447" lon="-0.00541">
        <ele>131</ele>
        <time>2021-02-24T07:55:46Z</time>
      </trkpt>
      <trkpt lat="43.60447" lon="-0.00535">
        <ele>131</ele>
        <time>2021-02-24T07:55:50Z</time>
      </trkpt>
      <trkpt lat="43.60449" lon="-0.0053">
        <ele>131</ele>
        <time>2021-02-24T07:55:54Z</time>
      </trkpt>
      <trkpt lat="43.6045" lon="-0.00522">
        <ele>132</ele>
        <time>2021-02-24T07:55:59Z</time>
      </trkpt>
      <trkpt lat="43.60449" lon="-0.00515">
        <ele>132</ele>
        <time>2021-02-24T07:56:04Z</time>
      </trkpt>
      <trkpt lat="43.60459" lon="-0.00457">
        <ele>132</ele>
        <time>2021-02-24T07:56:37Z</time>
      </trkpt>
      <trkpt lat="43.60458" lon="-0.00451">
        <ele>133</ele>
        <time>2021-02-24T07:56:41Z</time>
      </trkpt>
      <trkpt lat="43.60452" lon="-0.0044">
        <ele>133</ele>
        <time>2021-02-24T07:56:48Z</time>
      </trkpt>
      <trkpt lat="43.60448" lon="-0.0042">
        <ele>132</ele>
        <time>2021-02-24T07:56:59Z</time>
      </trkpt>
      <trkpt lat="43.60425" lon="-0.0037">
        <ele>132</ele>
        <time>2021-02-24T07:57:31Z</time>
      </trkpt>
      <trkpt lat="43.60424" lon="-0.00366">
        <ele>132</ele>
        <time>2021-02-24T07:57:34Z</time>
      </trkpt>
      <trkpt lat="43.6042" lon="-0.00346">
        <ele>132</ele>
        <time>2021-02-24T07:57:45Z</time>
      </trkpt>
      <trkpt lat="43.60415" lon="-0.00335">
        <ele>132</ele>
        <time>2021-02-24T07:57:53Z</time>
      </trkpt>
      <trkpt lat="43.60411" lon="-0.0033">
        <ele>132</ele>
        <time>2021-02-24T07:57:57Z</time>
      </trkpt>
      <trkpt lat="43.60411" lon="-0.00323">
        <ele>132</ele>
        <time>2021-02-24T07:58:01Z</time>
      </trkpt>
      <trkpt lat="43.60412" lon="-0.00316">
        <ele>132</ele>
        <time>2021-02-24T07:58:04Z</time>
      </trkpt>
      <trkpt lat="43.60417" lon="-0.00311">
        <ele>132</ele>
        <time>2021-02-24T07:58:11Z</time>
      </trkpt>
      <trkpt lat="43.60458" lon="-0.00298">
        <ele>132</ele>
        <time>2021-02-24T07:58:43Z</time>
      </trkpt>
      <trkpt lat="43.60476" lon="-0.00293">
        <ele>132</ele>
        <time>2021-02-24T07:58:57Z</time>
      </trkpt>
      <trkpt lat="43.60503" lon="-0.0028">
        <ele>132</ele>
        <time>2021-02-24T07:59:18Z</time>
      </trkpt>
      <trkpt lat="43.60506" lon="-0.00276">
        <ele>132</ele>
        <time>2021-02-24T07:59:21Z</time>
      </trkpt>
      <trkpt lat="43.60512" lon="-0.00264">
        <ele>132</ele>
        <time>2021-02-24T07:59:29Z</time>
      </trkpt>
      <trkpt lat="43.60515" lon="-0.00252">
        <ele>132</ele>
        <time>2021-02-24T07:59:36Z</time>
      </trkpt>
      <trkpt lat="43.6052" lon="-0.00222">
        <ele>132</ele>
        <time>2021-02-24T07:59:51Z</time>
      </trkpt>
      <trkpt lat="43.60529" lon="-0.00201">
        <ele>132</ele>
        <time>2021-02-24T08:00:06Z</time>
      </trkpt>
      <trkpt lat="43.60537" lon="-0.00194">
        <ele>132</ele>
        <time>2021-02-24T08:00:13Z</time>
      </trkpt>
      <trkpt lat="43.60549" lon="-0.00187">
        <ele>132</ele>
        <time>2021-02-24T08:00:25Z</time>
      </trkpt>
      <trkpt lat="43.6056" lon="-0.00185">
        <ele>132</ele>
        <time>2021-02-24T08:00:35Z</time>
      </trkpt>
      <trkpt lat="43.60565" lon="-0.00182">
        <ele>132</ele>
        <time>2021-02-24T08:00:38Z</time>
      </trkpt>
      <trkpt lat="43.60568" lon="-0.00178">
        <ele>132</ele>
        <time>2021-02-24T08:00:41Z</time>
      </trkpt>
      <trkpt lat="43.60571" lon="-0.00173">
        <ele>133</ele>
        <time>2021-02-24T08:00:51Z</time>
      </trkpt>
      <trkpt lat="43.60585" lon="-0.00177">
        <ele>132</ele>
        <time>2021-02-24T08:01:04Z</time>
      </trkpt>
      <trkpt lat="43.6059" lon="-0.00181">
        <ele>132</ele>
        <time>2021-02-24T08:01:10Z</time>
      </trkpt>
      <trkpt lat="43.60607" lon="-0.002">
        <ele>132</ele>
        <time>2021-02-24T08:01:28Z</time>
      </trkpt>
      <trkpt lat="43.60616" lon="-0.00206">
        <ele>132</ele>
        <time>2021-02-24T08:01:36Z</time>
      </trkpt>
      <trkpt lat="43.60624" lon="-0.00213">
        <ele>132</ele>
        <time>2021-02-24T08:01:43Z</time>
      </trkpt>
      <trkpt lat="43.60637" lon="-0.00222">
        <ele>132</ele>
        <time>2021-02-24T08:01:54Z</time>
      </trkpt>
      <trkpt lat="43.60674" lon="-0.00251">
        <ele>132</ele>
        <time>2021-02-24T08:02:27Z</time>
      </trkpt>
      <trkpt lat="43.60697" lon="-0.00265">
        <ele>132</ele>
        <time>2021-02-24T08:02:47Z</time>
      </trkpt>
      <trkpt lat="43.60713" lon="-0.00281">
        <ele>132</ele>
        <time>2021-02-24T08:03:03Z</time>
      </trkpt>
      <trkpt lat="43.60751" lon="-0.00302">
        <ele>132</ele>
        <time>2021-02-24T08:03:34Z</time>
      </trkpt>
      <trkpt lat="43.60785" lon="-0.0032">
        <ele>132</ele>
        <time>2021-02-24T08:04:00Z</time>
      </trkpt>
      <trkpt lat="43.60792" lon="-0.00322">
        <ele>132</ele>
        <time>2021-02-24T08:04:06Z</time>
      </trkpt>
      <trkpt lat="43.60805" lon="-0.00331">
        <ele>132</ele>
        <time>2021-02-24T08:04:17Z</time>
      </trkpt>
      <trkpt lat="43.60819" lon="-0.00333">
        <ele>133</ele>
        <time>2021-02-24T08:04:27Z</time>
      </trkpt>
      <trkpt lat="43.60835" lon="-0.00327">
        <ele>133</ele>
        <time>2021-02-24T08:04:39Z</time>
      </trkpt>
      <trkpt lat="43.60853" lon="-0.00315">
        <ele>133</ele>
        <time>2021-02-24T08:04:54Z</time>
      </trkpt>
      <trkpt lat="43.60863" lon="-0.00306">
        <ele>133</ele>
        <time>2021-02-24T08:05:03Z</time>
      </trkpt>
      <trkpt lat="43.60875" lon="-0.00299">
        <ele>133</ele>
        <time>2021-02-24T08:05:12Z</time>
      </trkpt>
      <trkpt lat="43.60883" lon="-0.00292">
        <ele>133</ele>
        <time>2021-02-24T08:05:20Z</time>
      </trkpt>
      <trkpt lat="43.60899" lon="-0.00289">
        <ele>133</ele>
        <time>2021-02-24T08:05:33Z</time>
      </trkpt>
      <trkpt lat="43.60933" lon="-0.00295">
        <ele>133</ele>
        <time>2021-02-24T08:05:58Z</time>
      </trkpt>
      <trkpt lat="43.60949" lon="-0.00301">
        <ele>133</ele>
        <time>2021-02-24T08:06:10Z</time>
      </trkpt>
      <trkpt lat="43.60994" lon="-0.00296">
        <ele>132</ele>
        <time>2021-02-24T08:06:43Z</time>
      </trkpt>
      <trkpt lat="43.61037" lon="-0.00293">
        <ele>132</ele>
        <time>2021-02-24T08:07:15Z</time>
      </trkpt>
      <trkpt lat="43.61041" lon="-0.00292">
        <ele>132</ele>
        <time>2021-02-24T08:07:18Z</time>
      </trkpt>
      <trkpt lat="43.6107" lon="-0.00296">
        <ele>132</ele>
        <time>2021-02-24T08:07:40Z</time>
      </trkpt>
      <trkpt lat="43.61073" lon="-0.00297">
        <ele>132</ele>
        <time>2021-02-24T08:07:43Z</time>
      </trkpt>
      <trkpt lat="43.6109" lon="-0.00298">
        <ele>132</ele>
        <time>2021-02-24T08:07:55Z</time>
      </trkpt>
      <trkpt lat="43.61102" lon="-0.00303">
        <ele>132</ele>
        <time>2021-02-24T08:08:04Z</time>
      </trkpt>
      <trkpt lat="43.61131" lon="-0.0031">
        <ele>132</ele>
        <time>2021-02-24T08:08:26Z</time>
      </trkpt>
      <trkpt lat="43.61152" lon="-0.00316">
        <ele>131</ele>
        <time>2021-02-24T08:08:42Z</time>
      </trkpt>
      <trkpt lat="43.61185" lon="-0.0032">
        <ele>132</ele>
        <time>2021-02-24T08:09:08Z</time>
      </trkpt>
      <trkpt lat="43.61192" lon="-0.00323">
        <ele>132</ele>
        <time>2021-02-24T08:09:15Z</time>
      </trkpt>
      <trkpt lat="43.61221" lon="-0.00324">
        <ele>131</ele>
        <time>2021-02-24T08:09:36Z</time>
      </trkpt>
      <trkpt lat="43.61225" lon="-0.00323">
        <ele>131</ele>
        <time>2021-02-24T08:09:39Z</time>
      </trkpt>
      <trkpt lat="43.61242" lon="-0.00325">
        <ele>131</ele>
        <time>2021-02-24T08:09:53Z</time>
      </trkpt>
      <trkpt lat="43.61246" lon="-0.00322">
        <ele>131</ele>
        <time>2021-02-24T08:10:30Z</time>
      </trkpt>
      <trkpt lat="43.61253" lon="-0.00322">
        <ele>131</ele>
        <time>2021-02-24T08:10:53Z</time>
      </trkpt>
      <trkpt lat="43.61271" lon="-0.00323">
        <ele>131</ele>
        <time>2021-02-24T08:11:07Z</time>
      </trkpt>
      <trkpt lat="43.61275" lon="-0.00323">
        <ele>131</ele>
        <time>2021-02-24T08:11:10Z</time>
      </trkpt>
      <trkpt lat="43.61303" lon="-0.00313">
        <ele>130</ele>
        <time>2021-02-24T08:11:32Z</time>
      </trkpt>
      <trkpt lat="43.61317" lon="-0.00314">
        <ele>130</ele>
        <time>2021-02-24T08:11:44Z</time>
      </trkpt>
      <trkpt lat="43.61321" lon="-0.00315">
        <ele>130</ele>
        <time>2021-02-24T08:11:48Z</time>
      </trkpt>
      <trkpt lat="43.61335" lon="-0.00314">
        <ele>130</ele>
        <time>2021-02-24T08:11:59Z</time>
      </trkpt>
      <trkpt lat="43.61347" lon="-0.00315">
        <ele>130</ele>
        <time>2021-02-24T08:12:08Z</time>
      </trkpt>
      <trkpt lat="43.61351" lon="-0.00314">
        <ele>130</ele>
        <time>2021-02-24T08:12:11Z</time>
      </trkpt>
      <trkpt lat="43.61376" lon="-0.00318">
        <ele>131</ele>
        <time>2021-02-24T08:12:31Z</time>
      </trkpt>
      <trkpt lat="43.6138" lon="-0.00317">
        <ele>131</ele>
        <time>2021-02-24T08:12:34Z</time>
      </trkpt>
      <trkpt lat="43.61383" lon="-0.00312">
        <ele>131</ele>
        <time>2021-02-24T08:12:37Z</time>
      </trkpt>
      <trkpt lat="43.61391" lon="-0.00283">
        <ele>131</ele>
        <time>2021-02-24T08:12:53Z</time>
      </trkpt>
      <trkpt lat="43.61391" lon="-0.00277">
        <ele>131</ele>
        <time>2021-02-24T08:12:56Z</time>
      </trkpt>
      <trkpt lat="43.61393" lon="-0.00272">
        <ele>131</ele>
        <time>2021-02-24T08:12:59Z</time>
      </trkpt>
      <trkpt lat="43.61399" lon="-0.00237">
        <ele>130</ele>
        <time>2021-02-24T08:13:19Z</time>
      </trkpt>
      <trkpt lat="43.61399" lon="-0.00207">
        <ele>130</ele>
        <time>2021-02-24T08:13:37Z</time>
      </trkpt>
      <trkpt lat="43.61401" lon="-0.00198">
        <ele>130</ele>
        <time>2021-02-24T08:13:42Z</time>
      </trkpt>
      <trkpt lat="43.614" lon="-0.00164">
        <ele>130</ele>
        <time>2021-02-24T08:14:01Z</time>
      </trkpt>
      <trkpt lat="43.61397" lon="-0.00133">
        <ele>130</ele>
        <time>2021-02-24T08:14:17Z</time>
      </trkpt>
      <trkpt lat="43.61397" lon="-0.0012">
        <ele>130</ele>
        <time>2021-02-24T08:14:24Z</time>
      </trkpt>
      <trkpt lat="43.61391" lon="-0.00076">
        <ele>130</ele>
        <time>2021-02-24T08:14:48Z</time>
      </trkpt>
      <trkpt lat="43.61389" lon="-0.00071">
        <ele>130</ele>
        <time>2021-02-24T08:14:52Z</time>
      </trkpt>
      <trkpt lat="43.61388" lon="-0.00065">
        <ele>130</ele>
        <time>2021-02-24T08:14:55Z</time>
      </trkpt>
      <trkpt lat="43.61385" lon="-0.00061">
        <ele>130</ele>
        <time>2021-02-24T08:14:58Z</time>
      </trkpt>
      <trkpt lat="43.61384" lon="-0.00055">
        <ele>130</ele>
        <time>2021-02-24T08:15:02Z</time>
      </trkpt>
      <trkpt lat="43.61384" lon="-0.0005">
        <ele>130</ele>
        <time>2021-02-24T08:15:05Z</time>
      </trkpt>
      <trkpt lat="43.61377" lon="7.0E-5">
        <ele>130</ele>
        <time>2021-02-24T08:15:36Z</time>
      </trkpt>
      <trkpt lat="43.61374" lon="0.00032">
        <ele>130</ele>
        <time>2021-02-24T08:15:50Z</time>
      </trkpt>
      <trkpt lat="43.61354" lon="0.00088">
        <ele>131</ele>
        <time>2021-02-24T08:16:23Z</time>
      </trkpt>
      <trkpt lat="43.61348" lon="0.0011">
        <ele>131</ele>
        <time>2021-02-24T08:16:36Z</time>
      </trkpt>
      <trkpt lat="43.61344" lon="0.00135">
        <ele>131</ele>
        <time>2021-02-24T08:16:50Z</time>
      </trkpt>
      <trkpt lat="43.61343" lon="0.0014">
        <ele>131</ele>
        <time>2021-02-24T08:16:54Z</time>
      </trkpt>
      <trkpt lat="43.61339" lon="0.00146">
        <ele>131</ele>
        <time>2021-02-24T08:17:00Z</time>
      </trkpt>
      <trkpt lat="43.61338" lon="0.00152">
        <ele>131</ele>
        <time>2021-02-24T08:17:03Z</time>
      </trkpt>
      <trkpt lat="43.61339" lon="0.00159">
        <ele>131</ele>
        <time>2021-02-24T08:17:07Z</time>
      </trkpt>
      <trkpt lat="43.61337" lon="0.00164">
        <ele>131</ele>
        <time>2021-02-24T08:17:10Z</time>
      </trkpt>
      <trkpt lat="43.61336" lon="0.00171">
        <ele>131</ele>
        <time>2021-02-24T08:17:14Z</time>
      </trkpt>
      <trkpt lat="43.61331" lon="0.00181">
        <ele>131</ele>
        <time>2021-02-24T08:17:22Z</time>
      </trkpt>
      <trkpt lat="43.61328" lon="0.00186">
        <ele>131</ele>
        <time>2021-02-24T08:17:26Z</time>
      </trkpt>
      <trkpt lat="43.6132" lon="0.00188">
        <ele>131</ele>
        <time>2021-02-24T08:17:39Z</time>
      </trkpt>
      <trkpt lat="43.6131" lon="0.00192">
        <ele>131</ele>
        <time>2021-02-24T08:17:47Z</time>
      </trkpt>
      <trkpt lat="43.61301" lon="0.00193">
        <ele>131</ele>
        <time>2021-02-24T08:17:53Z</time>
      </trkpt>
      <trkpt lat="43.61297" lon="0.00191">
        <ele>131</ele>
        <time>2021-02-24T08:17:58Z</time>
      </trkpt>
      <trkpt lat="43.61292" lon="0.00192">
        <ele>131</ele>
        <time>2021-02-24T08:18:02Z</time>
      </trkpt>
      <trkpt lat="43.61286" lon="0.002">
        <ele>131</ele>
        <time>2021-02-24T08:18:09Z</time>
      </trkpt>
      <trkpt lat="43.61285" lon="0.00207">
        <ele>131</ele>
        <time>2021-02-24T08:18:59Z</time>
      </trkpt>
      <trkpt lat="43.61287" lon="0.00221">
        <ele>130</ele>
        <time>2021-02-24T08:19:11Z</time>
      </trkpt>
      <trkpt lat="43.61287" lon="0.00226">
        <ele>130</ele>
        <time>2021-02-24T08:19:14Z</time>
      </trkpt>
      <trkpt lat="43.61286" lon="0.00232">
        <ele>130</ele>
        <time>2021-02-24T08:19:18Z</time>
      </trkpt>
      <trkpt lat="43.61286" lon="0.0025">
        <ele>130</ele>
        <time>2021-02-24T08:19:28Z</time>
      </trkpt>
      <trkpt lat="43.61285" lon="0.00262">
        <ele>130</ele>
        <time>2021-02-24T08:19:35Z</time>
      </trkpt>
      <trkpt lat="43.61285" lon="0.00272">
        <ele>130</ele>
        <time>2021-02-24T08:19:41Z</time>
      </trkpt>
      <trkpt lat="43.61282" lon="0.00314">
        <ele>130</ele>
        <time>2021-02-24T08:20:03Z</time>
      </trkpt>
      <trkpt lat="43.61283" lon="0.00319">
        <ele>130</ele>
        <time>2021-02-24T08:20:06Z</time>
      </trkpt>
      <trkpt lat="43.61281" lon="0.00326">
        <ele>130</ele>
        <time>2021-02-24T08:20:10Z</time>
      </trkpt>
      <trkpt lat="43.61281" lon="0.00334">
        <ele>130</ele>
        <time>2021-02-24T08:20:14Z</time>
      </trkpt>
      <trkpt lat="43.61277" lon="0.00392">
        <ele>130</ele>
        <time>2021-02-24T08:20:48Z</time>
      </trkpt>
      <trkpt lat="43.61274" lon="0.00442">
        <ele>130</ele>
        <time>2021-02-24T08:21:15Z</time>
      </trkpt>
      <trkpt lat="43.61275" lon="0.00454">
        <ele>130</ele>
        <time>2021-02-24T08:21:21Z</time>
      </trkpt>
      <trkpt lat="43.61274" lon="0.0046">
        <ele>130</ele>
        <time>2021-02-24T08:21:25Z</time>
      </trkpt>
      <trkpt lat="43.6127" lon="0.00518">
        <ele>130</ele>
        <time>2021-02-24T08:21:58Z</time>
      </trkpt>
      <trkpt lat="43.61269" lon="0.00531">
        <ele>130</ele>
        <time>2021-02-24T08:22:06Z</time>
      </trkpt>
      <trkpt lat="43.61269" lon="0.00543">
        <ele>130</ele>
        <time>2021-02-24T08:22:13Z</time>
      </trkpt>
      <trkpt lat="43.61265" lon="0.00596">
        <ele>130</ele>
        <time>2021-02-24T08:22:42Z</time>
      </trkpt>
      <trkpt lat="43.61265" lon="0.00609">
        <ele>130</ele>
        <time>2021-02-24T08:22:49Z</time>
      </trkpt>
      <trkpt lat="43.61262" lon="0.00622">
        <ele>130</ele>
        <time>2021-02-24T08:22:56Z</time>
      </trkpt>
      <trkpt lat="43.6126" lon="0.00655">
        <ele>130</ele>
        <time>2021-02-24T08:23:14Z</time>
      </trkpt>
      <trkpt lat="43.61259" lon="0.00661">
        <ele>130</ele>
        <time>2021-02-24T08:23:18Z</time>
      </trkpt>
      <trkpt lat="43.61259" lon="0.00667">
        <ele>130</ele>
        <time>2021-02-24T08:23:22Z</time>
      </trkpt>
      <trkpt lat="43.61258" lon="0.00674">
        <ele>130</ele>
        <time>2021-02-24T08:23:26Z</time>
      </trkpt>
      <trkpt lat="43.61257" lon="0.00689">
        <ele>130</ele>
        <time>2021-02-24T08:23:35Z</time>
      </trkpt>
      <trkpt lat="43.61258" lon="0.00695">
        <ele>130</ele>
        <time>2021-02-24T08:23:38Z</time>
      </trkpt>
      <trkpt lat="43.61253" lon="0.00724">
        <ele>130</ele>
        <time>2021-02-24T08:23:54Z</time>
      </trkpt>
      <trkpt lat="43.61254" lon="0.00746">
        <ele>130</ele>
        <time>2021-02-24T08:24:06Z</time>
      </trkpt>
      <trkpt lat="43.61253" lon="0.00753">
        <ele>130</ele>
        <time>2021-02-24T08:24:10Z</time>
      </trkpt>
      <trkpt lat="43.61253" lon="0.00794">
        <ele>130</ele>
        <time>2021-02-24T08:24:36Z</time>
      </trkpt>
      <trkpt lat="43.61252" lon="0.008">
        <ele>130</ele>
        <time>2021-02-24T08:24:40Z</time>
      </trkpt>
      <trkpt lat="43.61251" lon="0.00833">
        <ele>130</ele>
        <time>2021-02-24T08:24:57Z</time>
      </trkpt>
      <trkpt lat="43.61253" lon="0.00858">
        <ele>130</ele>
        <time>2021-02-24T08:25:11Z</time>
      </trkpt>
      <trkpt lat="43.61252" lon="0.00872">
        <ele>130</ele>
        <time>2021-02-24T08:25:18Z</time>
      </trkpt>
      <trkpt lat="43.61253" lon="0.00878">
        <ele>130</ele>
        <time>2021-02-24T08:25:22Z</time>
      </trkpt>
      <trkpt lat="43.61252" lon="0.00885">
        <ele>131</ele>
        <time>2021-02-24T08:25:26Z</time>
      </trkpt>
      <trkpt lat="43.61252" lon="0.00893">
        <ele>131</ele>
        <time>2021-02-24T08:25:36Z</time>
      </trkpt>
      <trkpt lat="43.61261" lon="0.00891">
        <ele>131</ele>
        <time>2021-02-24T08:27:22Z</time>
      </trkpt>
      <trkpt lat="43.61276" lon="0.00888">
        <ele>130</ele>
        <time>2021-02-24T08:27:40Z</time>
      </trkpt>
      <trkpt lat="43.61287" lon="0.00887">
        <ele>130</ele>
        <time>2021-02-24T08:27:49Z</time>
      </trkpt>
      <trkpt lat="43.61324" lon="0.00876">
        <ele>130</ele>
        <time>2021-02-24T08:28:20Z</time>
      </trkpt>
      <trkpt lat="43.61349" lon="0.0086">
        <ele>130</ele>
        <time>2021-02-24T08:28:40Z</time>
      </trkpt>
      <trkpt lat="43.61354" lon="0.00859">
        <ele>130</ele>
        <time>2021-02-24T08:28:45Z</time>
      </trkpt>
      <trkpt lat="43.61366" lon="0.00859">
        <ele>130</ele>
        <time>2021-02-24T08:28:56Z</time>
      </trkpt>
      <trkpt lat="43.6137" lon="0.0086">
        <ele>130</ele>
        <time>2021-02-24T08:28:59Z</time>
      </trkpt>
      <trkpt lat="43.61374" lon="0.00859">
        <ele>130</ele>
        <time>2021-02-24T08:29:03Z</time>
      </trkpt>
      <trkpt lat="43.61382" lon="0.00859">
        <ele>130</ele>
        <time>2021-02-24T08:29:11Z</time>
      </trkpt>
      <trkpt lat="43.61422" lon="0.0085">
        <ele>131</ele>
        <time>2021-02-24T08:29:42Z</time>
      </trkpt>
      <trkpt lat="43.61431" lon="0.00851">
        <ele>131</ele>
        <time>2021-02-24T08:29:49Z</time>
      </trkpt>
      <trkpt lat="43.61437" lon="0.00857">
        <ele>131</ele>
        <time>2021-02-24T08:30:04Z</time>
      </trkpt>
      <trkpt lat="43.61452" lon="0.0086">
        <ele>131</ele>
        <time>2021-02-24T08:30:19Z</time>
      </trkpt>
      <trkpt lat="43.61456" lon="0.00858">
        <ele>131</ele>
        <time>2021-02-24T08:30:25Z</time>
      </trkpt>
      <trkpt lat="43.61462" lon="0.00859">
        <ele>131</ele>
        <time>2021-02-24T08:30:30Z</time>
      </trkpt>
      <trkpt lat="43.61471" lon="0.00856">
        <ele>131</ele>
        <time>2021-02-24T08:30:41Z</time>
      </trkpt>
      <trkpt lat="43.61475" lon="0.00858">
        <ele>131</ele>
        <time>2021-02-24T08:30:45Z</time>
      </trkpt>
      <trkpt lat="43.61488" lon="0.00852">
        <ele>131</ele>
        <time>2021-02-24T08:30:56Z</time>
      </trkpt>
      <trkpt lat="43.61501" lon="0.00852">
        <ele>131</ele>
        <time>2021-02-24T08:31:06Z</time>
      </trkpt>
      <trkpt lat="43.61506" lon="0.00852">
        <ele>131</ele>
        <time>2021-02-24T08:31:11Z</time>
      </trkpt>
      <trkpt lat="43.6151" lon="0.00852">
        <ele>131</ele>
        <time>2021-02-24T08:31:14Z</time>
      </trkpt>
      <trkpt lat="43.61521" lon="0.00847">
        <ele>131</ele>
        <time>2021-02-24T08:31:24Z</time>
      </trkpt>
      <trkpt lat="43.61534" lon="0.00847">
        <ele>131</ele>
        <time>2021-02-24T08:31:35Z</time>
      </trkpt>
      <trkpt lat="43.61542" lon="0.00849">
        <ele>131</ele>
        <time>2021-02-24T08:31:41Z</time>
      </trkpt>
      <trkpt lat="43.61547" lon="0.00849">
        <ele>131</ele>
        <time>2021-02-24T08:31:44Z</time>
      </trkpt>
      <trkpt lat="43.61555" lon="0.00851">
        <ele>131</ele>
        <time>2021-02-24T08:31:51Z</time>
      </trkpt>
      <trkpt lat="43.61568" lon="0.00849">
        <ele>131</ele>
        <time>2021-02-24T08:32:01Z</time>
      </trkpt>
      <trkpt lat="43.61576" lon="0.0085">
        <ele>130</ele>
        <time>2021-02-24T08:32:08Z</time>
      </trkpt>
      <trkpt lat="43.61584" lon="0.00847">
        <ele>130</ele>
        <time>2021-02-24T08:32:14Z</time>
      </trkpt>
      <trkpt lat="43.61589" lon="0.00848">
        <ele>130</ele>
        <time>2021-02-24T08:32:17Z</time>
      </trkpt>
      <trkpt lat="43.61597" lon="0.00845">
        <ele>130</ele>
        <time>2021-02-24T08:32:24Z</time>
      </trkpt>
      <trkpt lat="43.6161" lon="0.00848">
        <ele>130</ele>
        <time>2021-02-24T08:32:34Z</time>
      </trkpt>
      <trkpt lat="43.61614" lon="0.0085">
        <ele>130</ele>
        <time>2021-02-24T08:32:37Z</time>
      </trkpt>
      <trkpt lat="43.61617" lon="0.00854">
        <ele>129</ele>
        <time>2021-02-24T08:32:51Z</time>
      </trkpt>
      <trkpt lat="43.61637" lon="0.00852">
        <ele>129</ele>
        <time>2021-02-24T08:33:48Z</time>
      </trkpt>
      <trkpt lat="43.61641" lon="0.00854">
        <ele>129</ele>
        <time>2021-02-24T08:33:52Z</time>
      </trkpt>
      <trkpt lat="43.61658" lon="0.00859">
        <ele>129</ele>
        <time>2021-02-24T08:34:07Z</time>
      </trkpt>
      <trkpt lat="43.61662" lon="0.00858">
        <ele>129</ele>
        <time>2021-02-24T08:34:11Z</time>
      </trkpt>
      <trkpt lat="43.61666" lon="0.0086">
        <ele>129</ele>
        <time>2021-02-24T08:34:14Z</time>
      </trkpt>
      <trkpt lat="43.61672" lon="0.00858">
        <ele>129</ele>
        <time>2021-02-24T08:34:28Z</time>
      </trkpt>
      <trkpt lat="43.61695" lon="0.00863">
        <ele>129</ele>
        <time>2021-02-24T08:34:47Z</time>
      </trkpt>
      <trkpt lat="43.61698" lon="0.00865">
        <ele>129</ele>
        <time>2021-02-24T08:34:50Z</time>
      </trkpt>
      <trkpt lat="43.61716" lon="0.00867">
        <ele>129</ele>
        <time>2021-02-24T08:35:05Z</time>
      </trkpt>
      <trkpt lat="43.6172" lon="0.00869">
        <ele>129</ele>
        <time>2021-02-24T08:35:08Z</time>
      </trkpt>
      <trkpt lat="43.61728" lon="0.00869">
        <ele>129</ele>
        <time>2021-02-24T08:35:14Z</time>
      </trkpt>
      <trkpt lat="43.61732" lon="0.00868">
        <ele>129</ele>
        <time>2021-02-24T08:35:17Z</time>
      </trkpt>
      <trkpt lat="43.61736" lon="0.0087">
        <ele>129</ele>
        <time>2021-02-24T08:35:20Z</time>
      </trkpt>
      <trkpt lat="43.61739" lon="0.0087">
        <ele>129</ele>
        <time>2021-02-24T08:35:23Z</time>
      </trkpt>
      <trkpt lat="43.61742" lon="0.00877">
        <ele>129</ele>
        <time>2021-02-24T08:36:12Z</time>
      </trkpt>
      <trkpt lat="43.61742" lon="0.00883">
        <ele>129</ele>
        <time>2021-02-24T08:36:17Z</time>
      </trkpt>
      <trkpt lat="43.61738" lon="0.00916">
        <ele>129</ele>
        <time>2021-02-24T08:36:38Z</time>
      </trkpt>
      <trkpt lat="43.61736" lon="0.00923">
        <ele>129</ele>
        <time>2021-02-24T08:36:41Z</time>
      </trkpt>
      <trkpt lat="43.61728" lon="0.00971">
        <ele>129</ele>
        <time>2021-02-24T08:37:10Z</time>
      </trkpt>
      <trkpt lat="43.61725" lon="0.00985">
        <ele>129</ele>
        <time>2021-02-24T08:37:18Z</time>
      </trkpt>
      <trkpt lat="43.61725" lon="0.00999">
        <ele>129</ele>
        <time>2021-02-24T08:37:26Z</time>
      </trkpt>
      <trkpt lat="43.61721" lon="0.01017">
        <ele>129</ele>
        <time>2021-02-24T08:37:37Z</time>
      </trkpt>
      <trkpt lat="43.61716" lon="0.01031">
        <ele>129</ele>
        <time>2021-02-24T08:37:45Z</time>
      </trkpt>
      <trkpt lat="43.61715" lon="0.01045">
        <ele>129</ele>
        <time>2021-02-24T08:37:53Z</time>
      </trkpt>
      <trkpt lat="43.6171" lon="0.01074">
        <ele>129</ele>
        <time>2021-02-24T08:38:09Z</time>
      </trkpt>
      <trkpt lat="43.61709" lon="0.01086">
        <ele>129</ele>
        <time>2021-02-24T08:38:16Z</time>
      </trkpt>
      <trkpt lat="43.61697" lon="0.0114">
        <ele>129</ele>
        <time>2021-02-24T08:38:48Z</time>
      </trkpt>
      <trkpt lat="43.61688" lon="0.01189">
        <ele>129</ele>
        <time>2021-02-24T08:39:17Z</time>
      </trkpt>
      <trkpt lat="43.61687" lon="0.01221">
        <ele>130</ele>
        <time>2021-02-24T08:39:35Z</time>
      </trkpt>
      <trkpt lat="43.61688" lon="0.01229">
        <ele>131</ele>
        <time>2021-02-24T08:39:40Z</time>
      </trkpt>
      <trkpt lat="43.6169" lon="0.01244">
        <ele>131</ele>
        <time>2021-02-24T08:39:48Z</time>
      </trkpt>
      <trkpt lat="43.6169" lon="0.01252">
        <ele>131</ele>
        <time>2021-02-24T08:39:52Z</time>
      </trkpt>
      <trkpt lat="43.61694" lon="0.01279">
        <ele>131</ele>
        <time>2021-02-24T08:40:09Z</time>
      </trkpt>
      <trkpt lat="43.61694" lon="0.01285">
        <ele>131</ele>
        <time>2021-02-24T08:40:13Z</time>
      </trkpt>
      <trkpt lat="43.61698" lon="0.01299">
        <ele>131</ele>
        <time>2021-02-24T08:40:23Z</time>
      </trkpt>
      <trkpt lat="43.61706" lon="0.0134">
        <ele>132</ele>
        <time>2021-02-24T08:40:49Z</time>
      </trkpt>
      <trkpt lat="43.61706" lon="0.01346">
        <ele>132</ele>
        <time>2021-02-24T08:40:53Z</time>
      </trkpt>
      <trkpt lat="43.61703" lon="0.01356">
        <ele>132</ele>
        <time>2021-02-24T08:41:01Z</time>
      </trkpt>
      <trkpt lat="43.61672" lon="0.01383">
        <ele>133</ele>
        <time>2021-02-24T08:41:35Z</time>
      </trkpt>
      <trkpt lat="43.6164" lon="0.01413">
        <ele>133</ele>
        <time>2021-02-24T08:42:08Z</time>
      </trkpt>
      <trkpt lat="43.61606" lon="0.01442">
        <ele>133</ele>
        <time>2021-02-24T08:42:38Z</time>
      </trkpt>
      <trkpt lat="43.61597" lon="0.0145">
        <ele>133</ele>
        <time>2021-02-24T08:42:47Z</time>
      </trkpt>
      <trkpt lat="43.61592" lon="0.01451">
        <ele>133</ele>
        <time>2021-02-24T08:42:55Z</time>
      </trkpt>
      <trkpt lat="43.61581" lon="0.01465">
        <ele>133</ele>
        <time>2021-02-24T08:43:07Z</time>
      </trkpt>
      <trkpt lat="43.61573" lon="0.01472">
        <ele>133</ele>
        <time>2021-02-24T08:43:14Z</time>
      </trkpt>
      <trkpt lat="43.61567" lon="0.01474">
        <ele>133</ele>
        <time>2021-02-24T08:43:18Z</time>
      </trkpt>
      <trkpt lat="43.61555" lon="0.01474">
        <ele>133</ele>
        <time>2021-02-24T08:43:26Z</time>
      </trkpt>
      <trkpt lat="43.6155" lon="0.01475">
        <ele>133</ele>
        <time>2021-02-24T08:43:30Z</time>
      </trkpt>
      <trkpt lat="43.61511" lon="0.01459">
        <ele>134</ele>
        <time>2021-02-24T08:44:01Z</time>
      </trkpt>
      <trkpt lat="43.61507" lon="0.01455">
        <ele>134</ele>
        <time>2021-02-24T08:44:06Z</time>
      </trkpt>
      <trkpt lat="43.61507" lon="0.01442">
        <ele>134</ele>
        <time>2021-02-24T08:44:15Z</time>
      </trkpt>
      <trkpt lat="43.61506" lon="0.01434">
        <ele>134</ele>
        <time>2021-02-24T08:44:19Z</time>
      </trkpt>
      <trkpt lat="43.61509" lon="0.01426">
        <ele>134</ele>
        <time>2021-02-24T08:44:24Z</time>
      </trkpt>
      <trkpt lat="43.61516" lon="0.01412">
        <ele>134</ele>
        <time>2021-02-24T08:44:33Z</time>
      </trkpt>
      <trkpt lat="43.61518" lon="0.01404">
        <ele>135</ele>
        <time>2021-02-24T08:44:39Z</time>
      </trkpt>
      <trkpt lat="43.61523" lon="0.01398">
        <ele>135</ele>
        <time>2021-02-24T08:45:19Z</time>
      </trkpt>
      <trkpt lat="43.61529" lon="0.01397">
        <ele>135</ele>
        <time>2021-02-24T08:45:28Z</time>
      </trkpt>
      <trkpt lat="43.61534" lon="0.01394">
        <ele>135</ele>
        <time>2021-02-24T08:45:52Z</time>
      </trkpt>
      <trkpt lat="43.61534" lon="0.01379">
        <ele>134</ele>
        <time>2021-02-24T08:47:53Z</time>
      </trkpt>
      <trkpt lat="43.61536" lon="0.01384">
        <ele>134</ele>
        <time>2021-02-24T08:48:39Z</time>
      </trkpt>
      <trkpt lat="43.61536" lon="0.01391">
        <ele>134</ele>
        <time>2021-02-24T08:48:44Z</time>
      </trkpt>
      <trkpt lat="43.61531" lon="0.01398">
        <ele>133</ele>
        <time>2021-02-24T08:48:51Z</time>
      </trkpt>
      <trkpt lat="43.61527" lon="0.01403">
        <ele>133</ele>
        <time>2021-02-24T08:48:56Z</time>
      </trkpt>
      <trkpt lat="43.61521" lon="0.01417">
        <ele>133</ele>
        <time>2021-02-24T08:49:05Z</time>
      </trkpt>
      <trkpt lat="43.61517" lon="0.01423">
        <ele>132</ele>
        <time>2021-02-24T08:49:10Z</time>
      </trkpt>
      <trkpt lat="43.61512" lon="0.01443">
        <ele>132</ele>
        <time>2021-02-24T08:49:23Z</time>
      </trkpt>
      <trkpt lat="43.61514" lon="0.01453">
        <ele>132</ele>
        <time>2021-02-24T08:49:33Z</time>
      </trkpt>
      <trkpt lat="43.61524" lon="0.01459">
        <ele>133</ele>
        <time>2021-02-24T08:50:30Z</time>
      </trkpt>
      <trkpt lat="43.61529" lon="0.01462">
        <ele>133</ele>
        <time>2021-02-24T08:50:35Z</time>
      </trkpt>
      <trkpt lat="43.61535" lon="0.01462">
        <ele>133</ele>
        <time>2021-02-24T08:50:38Z</time>
      </trkpt>
      <trkpt lat="43.6156" lon="0.0147">
        <ele>133</ele>
        <time>2021-02-24T08:50:59Z</time>
      </trkpt>
      <trkpt lat="43.61566" lon="0.01469">
        <ele>133</ele>
        <time>2021-02-24T08:51:05Z</time>
      </trkpt>
      <trkpt lat="43.61584" lon="0.01454">
        <ele>133</ele>
        <time>2021-02-24T08:51:20Z</time>
      </trkpt>
      <trkpt lat="43.61593" lon="0.01451">
        <ele>133</ele>
        <time>2021-02-24T08:51:26Z</time>
      </trkpt>
      <trkpt lat="43.61604" lon="0.01436">
        <ele>133</ele>
        <time>2021-02-24T08:51:38Z</time>
      </trkpt>
      <trkpt lat="43.61609" lon="0.01434">
        <ele>133</ele>
        <time>2021-02-24T08:51:43Z</time>
      </trkpt>
      <trkpt lat="43.61613" lon="0.01436">
        <ele>133</ele>
        <time>2021-02-24T08:51:47Z</time>
      </trkpt>
      <trkpt lat="43.61616" lon="0.01432">
        <ele>133</ele>
        <time>2021-02-24T08:51:55Z</time>
      </trkpt>
      <trkpt lat="43.6162" lon="0.01423">
        <ele>133</ele>
        <time>2021-02-24T08:52:29Z</time>
      </trkpt>
      <trkpt lat="43.61657" lon="0.01391">
        <ele>133</ele>
        <time>2021-02-24T08:53:03Z</time>
      </trkpt>
      <trkpt lat="43.61689" lon="0.01361">
        <ele>133</ele>
        <time>2021-02-24T08:53:33Z</time>
      </trkpt>
      <trkpt lat="43.61704" lon="0.01355">
        <ele>133</ele>
        <time>2021-02-24T08:53:46Z</time>
      </trkpt>
      <trkpt lat="43.61709" lon="0.01353">
        <ele>133</ele>
        <time>2021-02-24T08:54:01Z</time>
      </trkpt>
      <trkpt lat="43.61714" lon="0.01356">
        <ele>133</ele>
        <time>2021-02-24T08:54:05Z</time>
      </trkpt>
      <trkpt lat="43.61723" lon="0.01365">
        <ele>133</ele>
        <time>2021-02-24T08:54:12Z</time>
      </trkpt>
      <trkpt lat="43.61751" lon="0.01386">
        <ele>133</ele>
        <time>2021-02-24T08:54:36Z</time>
      </trkpt>
      <trkpt lat="43.61758" lon="0.01395">
        <ele>133</ele>
        <time>2021-02-24T08:54:44Z</time>
      </trkpt>
      <trkpt lat="43.61764" lon="0.01407">
        <ele>133</ele>
        <time>2021-02-24T08:54:53Z</time>
      </trkpt>
      <trkpt lat="43.61767" lon="0.01411">
        <ele>133</ele>
        <time>2021-02-24T08:54:56Z</time>
      </trkpt>
      <trkpt lat="43.61771" lon="0.01423">
        <ele>133</ele>
        <time>2021-02-24T08:55:02Z</time>
      </trkpt>
      <trkpt lat="43.61772" lon="0.0143">
        <ele>133</ele>
        <time>2021-02-24T08:55:06Z</time>
      </trkpt>
      <trkpt lat="43.61772" lon="0.01437">
        <ele>133</ele>
        <time>2021-02-24T08:55:10Z</time>
      </trkpt>
      <trkpt lat="43.61775" lon="0.01451">
        <ele>133</ele>
        <time>2021-02-24T08:55:18Z</time>
      </trkpt>
      <trkpt lat="43.61779" lon="0.01502">
        <ele>133</ele>
        <time>2021-02-24T08:55:48Z</time>
      </trkpt>
      <trkpt lat="43.61785" lon="0.01513">
        <ele>133</ele>
        <time>2021-02-24T08:55:57Z</time>
      </trkpt>
      <trkpt lat="43.61797" lon="0.01519">
        <ele>133</ele>
        <time>2021-02-24T08:56:10Z</time>
      </trkpt>
      <trkpt lat="43.61839" lon="0.01534">
        <ele>133</ele>
        <time>2021-02-24T08:56:42Z</time>
      </trkpt>
      <trkpt lat="43.61858" lon="0.01542">
        <ele>133</ele>
        <time>2021-02-24T08:56:59Z</time>
      </trkpt>
      <trkpt lat="43.61862" lon="0.01544">
        <ele>133</ele>
        <time>2021-02-24T08:57:02Z</time>
      </trkpt>
      <trkpt lat="43.61871" lon="0.01547">
        <ele>133</ele>
        <time>2021-02-24T08:57:10Z</time>
      </trkpt>
      <trkpt lat="43.61873" lon="0.01542">
        <ele>133</ele>
        <time>2021-02-24T08:57:13Z</time>
      </trkpt>
      <trkpt lat="43.61882" lon="0.0153">
        <ele>133</ele>
        <time>2021-02-24T08:57:51Z</time>
      </trkpt>
      <trkpt lat="43.61886" lon="0.01522">
        <ele>133</ele>
        <time>2021-02-24T08:57:58Z</time>
      </trkpt>
      <trkpt lat="43.61893" lon="0.01513">
        <ele>133</ele>
        <time>2021-02-24T08:58:05Z</time>
      </trkpt>
      <trkpt lat="43.61897" lon="0.01511">
        <ele>133</ele>
        <time>2021-02-24T08:58:08Z</time>
      </trkpt>
      <trkpt lat="43.61901" lon="0.0151">
        <ele>133</ele>
        <time>2021-02-24T08:58:11Z</time>
      </trkpt>
      <trkpt lat="43.61911" lon="0.0151">
        <ele>133</ele>
        <time>2021-02-24T08:58:18Z</time>
      </trkpt>
      <trkpt lat="43.61948" lon="0.0153">
        <ele>132</ele>
        <time>2021-02-24T08:58:47Z</time>
      </trkpt>
      <trkpt lat="43.61951" lon="0.01533">
        <ele>132</ele>
        <time>2021-02-24T08:58:50Z</time>
      </trkpt>
      <trkpt lat="43.61987" lon="0.01544">
        <ele>132</ele>
        <time>2021-02-24T08:59:19Z</time>
      </trkpt>
      <trkpt lat="43.6199" lon="0.01543">
        <ele>132</ele>
        <time>2021-02-24T08:59:22Z</time>
      </trkpt>
      <trkpt lat="43.6203" lon="0.0155">
        <ele>132</ele>
        <time>2021-02-24T08:59:53Z</time>
      </trkpt>
      <trkpt lat="43.62057" lon="0.01552">
        <ele>132</ele>
        <time>2021-02-24T09:00:13Z</time>
      </trkpt>
      <trkpt lat="43.62065" lon="0.01554">
        <ele>132</ele>
        <time>2021-02-24T09:00:19Z</time>
      </trkpt>
      <trkpt lat="43.62068" lon="0.01553">
        <ele>132</ele>
        <time>2021-02-24T09:00:22Z</time>
      </trkpt>
      <trkpt lat="43.62083" lon="0.01556">
        <ele>131</ele>
        <time>2021-02-24T09:00:40Z</time>
      </trkpt>
      <trkpt lat="43.62101" lon="0.01556">
        <ele>132</ele>
        <time>2021-02-24T09:00:54Z</time>
      </trkpt>
      <trkpt lat="43.62105" lon="0.01558">
        <ele>132</ele>
        <time>2021-02-24T09:00:58Z</time>
      </trkpt>
      <trkpt lat="43.62149" lon="0.01562">
        <ele>132</ele>
        <time>2021-02-24T09:01:32Z</time>
      </trkpt>
      <trkpt lat="43.62188" lon="0.0157">
        <ele>132</ele>
        <time>2021-02-24T09:02:03Z</time>
      </trkpt>
      <trkpt lat="43.62197" lon="0.01572">
        <ele>132</ele>
        <time>2021-02-24T09:02:10Z</time>
      </trkpt>
      <trkpt lat="43.62217" lon="0.01581">
        <ele>132</ele>
        <time>2021-02-24T09:02:27Z</time>
      </trkpt>
      <trkpt lat="43.62257" lon="0.01595">
        <ele>132</ele>
        <time>2021-02-24T09:03:00Z</time>
      </trkpt>
      <trkpt lat="43.62265" lon="0.01599">
        <ele>132</ele>
        <time>2021-02-24T09:03:08Z</time>
      </trkpt>
      <trkpt lat="43.62287" lon="0.01607">
        <ele>131</ele>
        <time>2021-02-24T09:03:24Z</time>
      </trkpt>
      <trkpt lat="43.6229" lon="0.0161">
        <ele>131</ele>
        <time>2021-02-24T09:03:28Z</time>
      </trkpt>
      <trkpt lat="43.62295" lon="0.01612">
        <ele>131</ele>
        <time>2021-02-24T09:03:32Z</time>
      </trkpt>
      <trkpt lat="43.623" lon="0.0161">
        <ele>131</ele>
        <time>2021-02-24T09:03:35Z</time>
      </trkpt>
      <trkpt lat="43.62342" lon="0.01625">
        <ele>131</ele>
        <time>2021-02-24T09:04:08Z</time>
      </trkpt>
      <trkpt lat="43.62346" lon="0.01626">
        <ele>131</ele>
        <time>2021-02-24T09:04:11Z</time>
      </trkpt>
      <trkpt lat="43.6235" lon="0.0163">
        <ele>131</ele>
        <time>2021-02-24T09:04:15Z</time>
      </trkpt>
      <trkpt lat="43.62367" lon="0.01637">
        <ele>131</ele>
        <time>2021-02-24T09:04:29Z</time>
      </trkpt>
      <trkpt lat="43.62376" lon="0.01638">
        <ele>131</ele>
        <time>2021-02-24T09:04:36Z</time>
      </trkpt>
      <trkpt lat="43.6238" lon="0.01641">
        <ele>131</ele>
        <time>2021-02-24T09:04:39Z</time>
      </trkpt>
      <trkpt lat="43.62389" lon="0.01642">
        <ele>131</ele>
        <time>2021-02-24T09:04:47Z</time>
      </trkpt>
      <trkpt lat="43.62409" lon="0.01649">
        <ele>131</ele>
        <time>2021-02-24T09:05:02Z</time>
      </trkpt>
      <trkpt lat="43.62413" lon="0.01649">
        <ele>131</ele>
        <time>2021-02-24T09:05:06Z</time>
      </trkpt>
      <trkpt lat="43.62418" lon="0.01649">
        <ele>131</ele>
        <time>2021-02-24T09:05:14Z</time>
      </trkpt>
      <trkpt lat="43.62425" lon="0.01651">
        <ele>131</ele>
        <time>2021-02-24T09:05:45Z</time>
      </trkpt>
      <trkpt lat="43.62429" lon="0.01653">
        <ele>131</ele>
        <time>2021-02-24T09:05:49Z</time>
      </trkpt>
      <trkpt lat="43.62435" lon="0.01653">
        <ele>131</ele>
        <time>2021-02-24T09:05:54Z</time>
      </trkpt>
      <trkpt lat="43.62445" lon="0.01658">
        <ele>131</ele>
        <time>2021-02-24T09:06:03Z</time>
      </trkpt>
      <trkpt lat="43.6245" lon="0.01657">
        <ele>131</ele>
        <time>2021-02-24T09:06:07Z</time>
      </trkpt>
      <trkpt lat="43.62489" lon="0.01667">
        <ele>131</ele>
        <time>2021-02-24T09:06:38Z</time>
      </trkpt>
      <trkpt lat="43.62502" lon="0.01668">
        <ele>131</ele>
        <time>2021-02-24T09:06:48Z</time>
      </trkpt>
      <trkpt lat="43.62508" lon="0.0167">
        <ele>132</ele>
        <time>2021-02-24T09:07:40Z</time>
      </trkpt>
      <trkpt lat="43.62522" lon="0.01673">
        <ele>132</ele>
        <time>2021-02-24T09:08:25Z</time>
      </trkpt>
      <trkpt lat="43.62527" lon="0.01673">
        <ele>131</ele>
        <time>2021-02-24T09:08:29Z</time>
      </trkpt>
      <trkpt lat="43.62531" lon="0.01672">
        <ele>131</ele>
        <time>2021-02-24T09:08:32Z</time>
      </trkpt>
      <trkpt lat="43.62535" lon="0.01673">
        <ele>132</ele>
        <time>2021-02-24T09:08:35Z</time>
      </trkpt>
      <trkpt lat="43.62546" lon="0.01674">
        <ele>131</ele>
        <time>2021-02-24T09:08:48Z</time>
      </trkpt>
      <trkpt lat="43.62559" lon="0.01675">
        <ele>131</ele>
        <time>2021-02-24T09:08:59Z</time>
      </trkpt>
      <trkpt lat="43.62588" lon="0.01677">
        <ele>130</ele>
        <time>2021-02-24T09:09:22Z</time>
      </trkpt>
      <trkpt lat="43.62632" lon="0.01683">
        <ele>131</ele>
        <time>2021-02-24T09:09:55Z</time>
      </trkpt>
      <trkpt lat="43.62636" lon="0.01684">
        <ele>131</ele>
        <time>2021-02-24T09:09:58Z</time>
      </trkpt>
      <trkpt lat="43.62644" lon="0.01684">
        <ele>130</ele>
        <time>2021-02-24T09:10:04Z</time>
      </trkpt>
      <trkpt lat="43.62664" lon="0.01689">
        <ele>130</ele>
        <time>2021-02-24T09:10:21Z</time>
      </trkpt>
      <trkpt lat="43.62671" lon="0.01689">
        <ele>130</ele>
        <time>2021-02-24T09:10:27Z</time>
      </trkpt>
      <trkpt lat="43.62679" lon="0.01691">
        <ele>130</ele>
        <time>2021-02-24T09:10:33Z</time>
      </trkpt>
      <trkpt lat="43.62684" lon="0.01691">
        <ele>130</ele>
        <time>2021-02-24T09:10:36Z</time>
      </trkpt>
      <trkpt lat="43.62688" lon="0.01692">
        <ele>130</ele>
        <time>2021-02-24T09:10:39Z</time>
      </trkpt>
      <trkpt lat="43.62691" lon="0.01692">
        <ele>130</ele>
        <time>2021-02-24T09:10:42Z</time>
      </trkpt>
      <trkpt lat="43.62702" lon="0.01696">
        <ele>130</ele>
        <time>2021-02-24T09:10:50Z</time>
      </trkpt>
      <trkpt lat="43.62706" lon="0.01695">
        <ele>130</ele>
        <time>2021-02-24T09:10:53Z</time>
      </trkpt>
      <trkpt lat="43.62726" lon="0.01701">
        <ele>130</ele>
        <time>2021-02-24T09:11:08Z</time>
      </trkpt>
      <trkpt lat="43.62729" lon="0.01703">
        <ele>130</ele>
        <time>2021-02-24T09:11:11Z</time>
      </trkpt>
      <trkpt lat="43.62769" lon="0.01711">
        <ele>130</ele>
        <time>2021-02-24T09:11:42Z</time>
      </trkpt>
      <trkpt lat="43.62776" lon="0.01714">
        <ele>130</ele>
        <time>2021-02-24T09:11:48Z</time>
      </trkpt>
      <trkpt lat="43.6278" lon="0.01714">
        <ele>130</ele>
        <time>2021-02-24T09:11:51Z</time>
      </trkpt>
      <trkpt lat="43.62784" lon="0.01716">
        <ele>130</ele>
        <time>2021-02-24T09:11:54Z</time>
      </trkpt>
      <trkpt lat="43.62799" lon="0.01719">
        <ele>130</ele>
        <time>2021-02-24T09:12:06Z</time>
      </trkpt>
      <trkpt lat="43.62808" lon="0.01723">
        <ele>130</ele>
        <time>2021-02-24T09:12:13Z</time>
      </trkpt>
      <trkpt lat="43.62838" lon="0.01729">
        <ele>130</ele>
        <time>2021-02-24T09:12:37Z</time>
      </trkpt>
      <trkpt lat="43.62842" lon="0.01728">
        <ele>130</ele>
        <time>2021-02-24T09:12:40Z</time>
      </trkpt>
      <trkpt lat="43.62883" lon="0.01739">
        <ele>130</ele>
        <time>2021-02-24T09:13:12Z</time>
      </trkpt>
      <trkpt lat="43.62895" lon="0.0174">
        <ele>130</ele>
        <time>2021-02-24T09:13:21Z</time>
      </trkpt>
      <trkpt lat="43.62933" lon="0.01747">
        <ele>130</ele>
        <time>2021-02-24T09:13:52Z</time>
      </trkpt>
      <trkpt lat="43.62957" lon="0.01753">
        <ele>130</ele>
        <time>2021-02-24T09:14:11Z</time>
      </trkpt>
      <trkpt lat="43.62961" lon="0.01752">
        <ele>130</ele>
        <time>2021-02-24T09:14:14Z</time>
      </trkpt>
      <trkpt lat="43.62997" lon="0.01758">
        <ele>129</ele>
        <time>2021-02-24T09:14:42Z</time>
      </trkpt>
      <trkpt lat="43.63001" lon="0.01757">
        <ele>129</ele>
        <time>2021-02-24T09:14:45Z</time>
      </trkpt>
      <trkpt lat="43.63008" lon="0.0176">
        <ele>129</ele>
        <time>2021-02-24T09:14:51Z</time>
      </trkpt>
      <trkpt lat="43.63016" lon="0.01761">
        <ele>129</ele>
        <time>2021-02-24T09:14:57Z</time>
      </trkpt>
      <trkpt lat="43.63029" lon="0.01766">
        <ele>129</ele>
        <time>2021-02-24T09:15:07Z</time>
      </trkpt>
      <trkpt lat="43.63035" lon="0.01773">
        <ele>129</ele>
        <time>2021-02-24T09:15:13Z</time>
      </trkpt>
      <trkpt lat="43.63053" lon="0.01794">
        <ele>129</ele>
        <time>2021-02-24T09:15:32Z</time>
      </trkpt>
      <trkpt lat="43.6306" lon="0.01801">
        <ele>129</ele>
        <time>2021-02-24T09:15:39Z</time>
      </trkpt>
      <trkpt lat="43.63067" lon="0.01808">
        <ele>129</ele>
        <time>2021-02-24T09:15:45Z</time>
      </trkpt>
      <trkpt lat="43.63081" lon="0.0182">
        <ele>129</ele>
        <time>2021-02-24T09:15:59Z</time>
      </trkpt>
      <trkpt lat="43.63114" lon="0.01832">
        <ele>129</ele>
        <time>2021-02-24T09:16:27Z</time>
      </trkpt>
      <trkpt lat="43.63118" lon="0.01834">
        <ele>129</ele>
        <time>2021-02-24T09:16:30Z</time>
      </trkpt>
      <trkpt lat="43.63134" lon="0.01839">
        <ele>129</ele>
        <time>2021-02-24T09:16:43Z</time>
      </trkpt>
      <trkpt lat="43.63142" lon="0.01843">
        <ele>129</ele>
        <time>2021-02-24T09:16:49Z</time>
      </trkpt>
      <trkpt lat="43.63166" lon="0.01846">
        <ele>128</ele>
        <time>2021-02-24T09:17:08Z</time>
      </trkpt>
      <trkpt lat="43.6318" lon="0.01843">
        <ele>128</ele>
        <time>2021-02-24T09:17:20Z</time>
      </trkpt>
      <trkpt lat="43.63187" lon="0.01844">
        <ele>129</ele>
        <time>2021-02-24T09:17:26Z</time>
      </trkpt>
      <trkpt lat="43.63209" lon="0.0184">
        <ele>128</ele>
        <time>2021-02-24T09:17:43Z</time>
      </trkpt>
      <trkpt lat="43.63246" lon="0.01813">
        <ele>128</ele>
        <time>2021-02-24T09:18:14Z</time>
      </trkpt>
      <trkpt lat="43.63254" lon="0.01808">
        <ele>128</ele>
        <time>2021-02-24T09:18:22Z</time>
      </trkpt>
      <trkpt lat="43.63263" lon="0.01807">
        <ele>128</ele>
        <time>2021-02-24T09:18:30Z</time>
      </trkpt>
      <trkpt lat="43.63271" lon="0.01812">
        <ele>128</ele>
        <time>2021-02-24T09:19:07Z</time>
      </trkpt>
      <trkpt lat="43.63275" lon="0.01813">
        <ele>128</ele>
        <time>2021-02-24T09:19:10Z</time>
      </trkpt>
      <trkpt lat="43.63279" lon="0.01812">
        <ele>128</ele>
        <time>2021-02-24T09:19:14Z</time>
      </trkpt>
      <trkpt lat="43.63287" lon="0.01813">
        <ele>127</ele>
        <time>2021-02-24T09:19:21Z</time>
      </trkpt>
      <trkpt lat="43.63297" lon="0.01817">
        <ele>127</ele>
        <time>2021-02-24T09:19:31Z</time>
      </trkpt>
      <trkpt lat="43.63301" lon="0.0182">
        <ele>127</ele>
        <time>2021-02-24T09:19:34Z</time>
      </trkpt>
      <trkpt lat="43.63313" lon="0.01821">
        <ele>128</ele>
        <time>2021-02-24T09:19:43Z</time>
      </trkpt>
      <trkpt lat="43.63347" lon="0.01834">
        <ele>127</ele>
        <time>2021-02-24T09:20:11Z</time>
      </trkpt>
      <trkpt lat="43.6335" lon="0.01837">
        <ele>127</ele>
        <time>2021-02-24T09:20:14Z</time>
      </trkpt>
      <trkpt lat="43.63355" lon="0.01839">
        <ele>127</ele>
        <time>2021-02-24T09:20:17Z</time>
      </trkpt>
      <trkpt lat="43.63361" lon="0.01847">
        <ele>127</ele>
        <time>2021-02-24T09:20:25Z</time>
      </trkpt>
      <trkpt lat="43.63385" lon="0.01861">
        <ele>128</ele>
        <time>2021-02-24T09:20:46Z</time>
      </trkpt>
      <trkpt lat="43.63402" lon="0.01875">
        <ele>127</ele>
        <time>2021-02-24T09:21:03Z</time>
      </trkpt>
      <trkpt lat="43.63406" lon="0.01875">
        <ele>127</ele>
        <time>2021-02-24T09:21:06Z</time>
      </trkpt>
      <trkpt lat="43.63424" lon="0.0188">
        <ele>127</ele>
        <time>2021-02-24T09:21:20Z</time>
      </trkpt>
      <trkpt lat="43.63465" lon="0.0188">
        <ele>127</ele>
        <time>2021-02-24T09:21:53Z</time>
      </trkpt>
      <trkpt lat="43.63507" lon="0.01888">
        <ele>125</ele>
        <time>2021-02-24T09:22:27Z</time>
      </trkpt>
      <trkpt lat="43.63525" lon="0.01879">
        <ele>124</ele>
        <time>2021-02-24T09:22:41Z</time>
      </trkpt>
      <trkpt lat="43.63558" lon="0.01849">
        <ele>124</ele>
        <time>2021-02-24T09:23:13Z</time>
      </trkpt>
      <trkpt lat="43.63569" lon="0.01839">
        <ele>124</ele>
        <time>2021-02-24T09:23:24Z</time>
      </trkpt>
      <trkpt lat="43.63572" lon="0.01833">
        <ele>124</ele>
        <time>2021-02-24T09:23:28Z</time>
      </trkpt>
      <trkpt lat="43.63576" lon="0.0183">
        <ele>124</ele>
        <time>2021-02-24T09:23:32Z</time>
      </trkpt>
      <trkpt lat="43.63596" lon="0.01804">
        <ele>124</ele>
        <time>2021-02-24T09:23:53Z</time>
      </trkpt>
      <trkpt lat="43.63604" lon="0.01799">
        <ele>124</ele>
        <time>2021-02-24T09:24:00Z</time>
      </trkpt>
      <trkpt lat="43.63618" lon="0.01793">
        <ele>124</ele>
        <time>2021-02-24T09:24:11Z</time>
      </trkpt>
      <trkpt lat="43.63633" lon="0.01791">
        <ele>124</ele>
        <time>2021-02-24T09:24:24Z</time>
      </trkpt>
      <trkpt lat="43.63637" lon="0.01788">
        <ele>124</ele>
        <time>2021-02-24T09:24:27Z</time>
      </trkpt>
      <trkpt lat="43.63655" lon="0.01785">
        <ele>124</ele>
        <time>2021-02-24T09:24:42Z</time>
      </trkpt>
      <trkpt lat="43.63673" lon="0.01785">
        <ele>124</ele>
        <time>2021-02-24T09:24:56Z</time>
      </trkpt>
      <trkpt lat="43.63681" lon="0.01779">
        <ele>124</ele>
        <time>2021-02-24T09:25:02Z</time>
      </trkpt>
      <trkpt lat="43.63684" lon="0.01775">
        <ele>124</ele>
        <time>2021-02-24T09:25:06Z</time>
      </trkpt>
      <trkpt lat="43.63705" lon="0.01733">
        <ele>124</ele>
        <time>2021-02-24T09:25:39Z</time>
      </trkpt>
      <trkpt lat="43.63717" lon="0.01706">
        <ele>123</ele>
        <time>2021-02-24T09:25:57Z</time>
      </trkpt>
      <trkpt lat="43.63723" lon="0.01698">
        <ele>123</ele>
        <time>2021-02-24T09:26:04Z</time>
      </trkpt>
      <trkpt lat="43.63725" lon="0.01697">
        <ele>123</ele>
        <time>2021-02-24T09:26:32Z</time>
      </trkpt>
      <trkpt lat="43.63728" lon="0.01683">
        <ele>123</ele>
        <time>2021-02-24T09:26:48Z</time>
      </trkpt>
      <trkpt lat="43.63725" lon="0.01679">
        <ele>123</ele>
        <time>2021-02-24T09:26:52Z</time>
      </trkpt>
      <trkpt lat="43.63715" lon="0.01665">
        <ele>123</ele>
        <time>2021-02-24T09:27:11Z</time>
      </trkpt>
      <trkpt lat="43.63715" lon="0.0166">
        <ele>123</ele>
        <time>2021-02-24T09:27:15Z</time>
      </trkpt>
      <trkpt lat="43.63714" lon="0.01653">
        <ele>123</ele>
        <time>2021-02-24T09:27:23Z</time>
      </trkpt>
      <trkpt lat="43.63713" lon="0.01646">
        <ele>123</ele>
        <time>2021-02-24T09:27:28Z</time>
      </trkpt>
      <trkpt lat="43.63706" lon="0.01639">
        <ele>123</ele>
        <time>2021-02-24T09:27:56Z</time>
      </trkpt>
      <trkpt lat="43.63709" lon="0.01634">
        <ele>123</ele>
        <time>2021-02-24T09:28:04Z</time>
      </trkpt>
      <trkpt lat="43.63715" lon="0.01637">
        <ele>123</ele>
        <time>2021-02-24T09:28:16Z</time>
      </trkpt>
      <trkpt lat="43.63715" lon="0.01645">
        <ele>123</ele>
        <time>2021-02-24T09:28:22Z</time>
      </trkpt>
      <trkpt lat="43.63717" lon="0.01645">
        <ele>123</ele>
        <time>2021-02-24T09:29:07Z</time>
      </trkpt>
      <trkpt lat="43.63714" lon="0.01645">
        <ele>123</ele>
        <time>2021-02-24T09:29:55Z</time>
      </trkpt>
      <trkpt lat="43.63714" lon="0.01645">
        <ele>123</ele>
        <time>2021-02-24T09:40:52Z</time>
      </trkpt>
      <trkpt lat="43.63714" lon="0.01648">
        <ele>123</ele>
        <time>2021-02-24T09:42:46Z</time>
      </trkpt>
      <trkpt lat="43.63712" lon="0.01647">
        <ele>123</ele>
        <time>2021-02-24T09:43:31Z</time>
      </trkpt>
      <trkpt lat="43.63703" lon="0.01645">
        <ele>123</ele>
        <time>2021-02-24T09:43:44Z</time>
      </trkpt>
      <trkpt lat="43.63698" lon="0.01639">
        <ele>123</ele>
        <time>2021-02-24T09:43:52Z</time>
      </trkpt>
      <trkpt lat="43.63696" lon="0.01635">
        <ele>123</ele>
        <time>2021-02-24T09:43:58Z</time>
      </trkpt>
      <trkpt lat="43.63689" lon="0.01631">
        <ele>123</ele>
        <time>2021-02-24T09:44:07Z</time>
      </trkpt>
      <trkpt lat="43.63686" lon="0.01628">
        <ele>123</ele>
        <time>2021-02-24T09:44:11Z</time>
      </trkpt>
      <trkpt lat="43.63682" lon="0.01627">
        <ele>123</ele>
        <time>2021-02-24T09:44:18Z</time>
      </trkpt>
      <trkpt lat="43.63677" lon="0.01628">
        <ele>123</ele>
        <time>2021-02-24T09:44:22Z</time>
      </trkpt>
      <trkpt lat="43.63643" lon="0.01601">
        <ele>124</ele>
        <time>2021-02-24T09:44:54Z</time>
      </trkpt>
      <trkpt lat="43.63616" lon="0.01584">
        <ele>124</ele>
        <time>2021-02-24T09:45:17Z</time>
      </trkpt>
      <trkpt lat="43.6361" lon="0.01575">
        <ele>124</ele>
        <time>2021-02-24T09:45:25Z</time>
      </trkpt>
      <trkpt lat="43.63595" lon="0.01563">
        <ele>124</ele>
        <time>2021-02-24T09:45:39Z</time>
      </trkpt>
      <trkpt lat="43.63592" lon="0.01559">
        <ele>124</ele>
        <time>2021-02-24T09:45:43Z</time>
      </trkpt>
      <trkpt lat="43.63589" lon="0.01557">
        <ele>124</ele>
        <time>2021-02-24T09:45:46Z</time>
      </trkpt>
      <trkpt lat="43.63585" lon="0.01554">
        <ele>124</ele>
        <time>2021-02-24T09:45:49Z</time>
      </trkpt>
      <trkpt lat="43.63582" lon="0.01552">
        <ele>124</ele>
        <time>2021-02-24T09:45:52Z</time>
      </trkpt>
      <trkpt lat="43.63574" lon="0.01548">
        <ele>124</ele>
        <time>2021-02-24T09:45:59Z</time>
      </trkpt>
      <trkpt lat="43.63546" lon="0.01529">
        <ele>124</ele>
        <time>2021-02-24T09:46:22Z</time>
      </trkpt>
      <trkpt lat="43.63536" lon="0.0152">
        <ele>124</ele>
        <time>2021-02-24T09:46:32Z</time>
      </trkpt>
      <trkpt lat="43.63516" lon="0.01508">
        <ele>124</ele>
        <time>2021-02-24T09:46:48Z</time>
      </trkpt>
      <trkpt lat="43.63508" lon="0.01506">
        <ele>124</ele>
        <time>2021-02-24T09:46:54Z</time>
      </trkpt>
      <trkpt lat="43.63477" lon="0.01488">
        <ele>124</ele>
        <time>2021-02-24T09:47:20Z</time>
      </trkpt>
      <trkpt lat="43.63473" lon="0.01487">
        <ele>124</ele>
        <time>2021-02-24T09:47:23Z</time>
      </trkpt>
      <trkpt lat="43.63434" lon="0.01465">
        <ele>125</ele>
        <time>2021-02-24T09:47:56Z</time>
      </trkpt>
      <trkpt lat="43.63412" lon="0.01452">
        <ele>124</ele>
        <time>2021-02-24T09:48:15Z</time>
      </trkpt>
      <trkpt lat="43.63379" lon="0.0142">
        <ele>124</ele>
        <time>2021-02-24T09:48:47Z</time>
      </trkpt>
      <trkpt lat="43.63349" lon="0.01389">
        <ele>124</ele>
        <time>2021-02-24T09:49:15Z</time>
      </trkpt>
      <trkpt lat="43.63344" lon="0.0138">
        <ele>124</ele>
        <time>2021-02-24T09:49:23Z</time>
      </trkpt>
      <trkpt lat="43.63339" lon="0.01377">
        <ele>124</ele>
        <time>2021-02-24T09:49:27Z</time>
      </trkpt>
      <trkpt lat="43.63317" lon="0.01346">
        <ele>125</ele>
        <time>2021-02-24T09:49:51Z</time>
      </trkpt>
      <trkpt lat="43.63313" lon="0.01344">
        <ele>125</ele>
        <time>2021-02-24T09:49:55Z</time>
      </trkpt>
      <trkpt lat="43.63303" lon="0.01331">
        <ele>125</ele>
        <time>2021-02-24T09:50:07Z</time>
      </trkpt>
      <trkpt lat="43.63289" lon="0.01319">
        <ele>125</ele>
        <time>2021-02-24T09:50:19Z</time>
      </trkpt>
      <trkpt lat="43.63282" lon="0.01312">
        <ele>125</ele>
        <time>2021-02-24T09:50:25Z</time>
      </trkpt>
      <trkpt lat="43.63281" lon="0.01308">
        <ele>125</ele>
        <time>2021-02-24T09:50:28Z</time>
      </trkpt>
      <trkpt lat="43.63271" lon="0.01297">
        <ele>125</ele>
        <time>2021-02-24T09:50:38Z</time>
      </trkpt>
      <trkpt lat="43.63269" lon="0.01292">
        <ele>125</ele>
        <time>2021-02-24T09:50:41Z</time>
      </trkpt>
      <trkpt lat="43.63262" lon="0.01285">
        <ele>125</ele>
        <time>2021-02-24T09:50:47Z</time>
      </trkpt>
      <trkpt lat="43.63255" lon="0.01273">
        <ele>125</ele>
        <time>2021-02-24T09:50:55Z</time>
      </trkpt>
      <trkpt lat="43.63252" lon="0.01263">
        <ele>125</ele>
        <time>2021-02-24T09:51:02Z</time>
      </trkpt>
      <trkpt lat="43.63244" lon="0.01249">
        <ele>125</ele>
        <time>2021-02-24T09:51:11Z</time>
      </trkpt>
      <trkpt lat="43.63224" lon="0.01202">
        <ele>125</ele>
        <time>2021-02-24T09:51:42Z</time>
      </trkpt>
      <trkpt lat="43.63217" lon="0.01174">
        <ele>125</ele>
        <time>2021-02-24T09:51:57Z</time>
      </trkpt>
      <trkpt lat="43.63215" lon="0.01163">
        <ele>125</ele>
        <time>2021-02-24T09:52:03Z</time>
      </trkpt>
      <trkpt lat="43.63204" lon="0.01117">
        <ele>125</ele>
        <time>2021-02-24T09:52:31Z</time>
      </trkpt>
      <trkpt lat="43.63202" lon="0.01099">
        <ele>125</ele>
        <time>2021-02-24T09:52:41Z</time>
      </trkpt>
      <trkpt lat="43.63189" lon="0.01045">
        <ele>125</ele>
        <time>2021-02-24T09:53:14Z</time>
      </trkpt>
      <trkpt lat="43.63175" lon="0.00991">
        <ele>125</ele>
        <time>2021-02-24T09:53:45Z</time>
      </trkpt>
      <trkpt lat="43.63162" lon="0.0094">
        <ele>125</ele>
        <time>2021-02-24T09:54:16Z</time>
      </trkpt>
      <trkpt lat="43.63147" lon="0.00888">
        <ele>125</ele>
        <time>2021-02-24T09:54:48Z</time>
      </trkpt>
      <trkpt lat="43.63134" lon="0.00835">
        <ele>125</ele>
        <time>2021-02-24T09:55:20Z</time>
      </trkpt>
      <trkpt lat="43.63119" lon="0.00779">
        <ele>125</ele>
        <time>2021-02-24T09:55:53Z</time>
      </trkpt>
      <trkpt lat="43.63108" lon="0.00742">
        <ele>125</ele>
        <time>2021-02-24T09:56:16Z</time>
      </trkpt>
      <trkpt lat="43.63107" lon="0.00736">
        <ele>125</ele>
        <time>2021-02-24T09:56:20Z</time>
      </trkpt>
      <trkpt lat="43.63094" lon="0.00686">
        <ele>125</ele>
        <time>2021-02-24T09:56:51Z</time>
      </trkpt>
      <trkpt lat="43.63081" lon="0.00635">
        <ele>125</ele>
        <time>2021-02-24T09:57:22Z</time>
      </trkpt>
      <trkpt lat="43.63074" lon="0.00615">
        <ele>125</ele>
        <time>2021-02-24T09:57:34Z</time>
      </trkpt>
      <trkpt lat="43.63065" lon="0.00556">
        <ele>125</ele>
        <time>2021-02-24T09:58:08Z</time>
      </trkpt>
      <trkpt lat="43.63064" lon="0.00552">
        <ele>125</ele>
        <time>2021-02-24T09:58:11Z</time>
      </trkpt>
      <trkpt lat="43.6306" lon="0.00521">
        <ele>125</ele>
        <time>2021-02-24T09:58:29Z</time>
      </trkpt>
      <trkpt lat="43.63054" lon="0.00498">
        <ele>125</ele>
        <time>2021-02-24T09:58:43Z</time>
      </trkpt>
      <trkpt lat="43.63052" lon="0.00487">
        <ele>125</ele>
        <time>2021-02-24T09:58:50Z</time>
      </trkpt>
      <trkpt lat="43.63041" lon="0.00451">
        <ele>125</ele>
        <time>2021-02-24T09:59:11Z</time>
      </trkpt>
      <trkpt lat="43.63034" lon="0.00402">
        <ele>125</ele>
        <time>2021-02-24T09:59:39Z</time>
      </trkpt>
      <trkpt lat="43.63034" lon="0.0039">
        <ele>125</ele>
        <time>2021-02-24T09:59:46Z</time>
      </trkpt>
      <trkpt lat="43.63031" lon="0.0036">
        <ele>125</ele>
        <time>2021-02-24T10:00:06Z</time>
      </trkpt>
      <trkpt lat="43.63032" lon="0.00354">
        <ele>125</ele>
        <time>2021-02-24T10:00:10Z</time>
      </trkpt>
      <trkpt lat="43.63027" lon="0.00318">
        <ele>126</ele>
        <time>2021-02-24T10:00:31Z</time>
      </trkpt>
      <trkpt lat="43.6301" lon="0.00263">
        <ele>126</ele>
        <time>2021-02-24T10:01:04Z</time>
      </trkpt>
      <trkpt lat="43.63009" lon="0.00257">
        <ele>126</ele>
        <time>2021-02-24T10:01:08Z</time>
      </trkpt>
      <trkpt lat="43.63003" lon="0.00244">
        <ele>126</ele>
        <time>2021-02-24T10:01:16Z</time>
      </trkpt>
      <trkpt lat="43.62999" lon="0.00221">
        <ele>126</ele>
        <time>2021-02-24T10:01:29Z</time>
      </trkpt>
      <trkpt lat="43.62999" lon="0.00208">
        <ele>126</ele>
        <time>2021-02-24T10:01:37Z</time>
      </trkpt>
      <trkpt lat="43.62993" lon="0.00151">
        <ele>126</ele>
        <time>2021-02-24T10:02:08Z</time>
      </trkpt>
      <trkpt lat="43.62993" lon="0.0014">
        <ele>126</ele>
        <time>2021-02-24T10:02:14Z</time>
      </trkpt>
      <trkpt lat="43.62991" lon="0.00135">
        <ele>126</ele>
        <time>2021-02-24T10:02:18Z</time>
      </trkpt>
      <trkpt lat="43.62986" lon="0.0009">
        <ele>126</ele>
        <time>2021-02-24T10:02:43Z</time>
      </trkpt>
      <trkpt lat="43.62984" lon="0.00068">
        <ele>126</ele>
        <time>2021-02-24T10:02:56Z</time>
      </trkpt>
      <trkpt lat="43.62981" lon="0.00038">
        <ele>126</ele>
        <time>2021-02-24T10:03:13Z</time>
      </trkpt>
      <trkpt lat="43.62976" lon="0.0001">
        <ele>126</ele>
        <time>2021-02-24T10:03:30Z</time>
      </trkpt>
      <trkpt lat="43.62974" lon="-0.00012">
        <ele>126</ele>
        <time>2021-02-24T10:03:44Z</time>
      </trkpt>
      <trkpt lat="43.62971" lon="-0.00029">
        <ele>126</ele>
        <time>2021-02-24T10:03:55Z</time>
      </trkpt>
      <trkpt lat="43.62972" lon="-0.00034">
        <ele>126</ele>
        <time>2021-02-24T10:03:58Z</time>
      </trkpt>
      <trkpt lat="43.62974" lon="-0.00039">
        <ele>126</ele>
        <time>2021-02-24T10:04:01Z</time>
      </trkpt>
      <trkpt lat="43.6298" lon="-0.00046">
        <ele>126</ele>
        <time>2021-02-24T10:04:07Z</time>
      </trkpt>
      <trkpt lat="43.62983" lon="-0.00048">
        <ele>126</ele>
        <time>2021-02-24T10:04:09Z</time>
      </trkpt>
      <trkpt lat="43.62994" lon="-0.0005">
        <ele>126</ele>
        <time>2021-02-24T10:04:18Z</time>
      </trkpt>
      <trkpt lat="43.62998" lon="-0.00053">
        <ele>126</ele>
        <time>2021-02-24T10:04:21Z</time>
      </trkpt>
      <trkpt lat="43.63031" lon="-0.00059">
        <ele>126</ele>
        <time>2021-02-24T10:04:48Z</time>
      </trkpt>
      <trkpt lat="43.63044" lon="-0.00062">
        <ele>126</ele>
        <time>2021-02-24T10:04:58Z</time>
      </trkpt>
      <trkpt lat="43.63051" lon="-0.00062">
        <ele>126</ele>
        <time>2021-02-24T10:05:04Z</time>
      </trkpt>
      <trkpt lat="43.63055" lon="-0.00064">
        <ele>126</ele>
        <time>2021-02-24T10:05:07Z</time>
      </trkpt>
      <trkpt lat="43.63096" lon="-0.00071">
        <ele>125</ele>
        <time>2021-02-24T10:05:40Z</time>
      </trkpt>
      <trkpt lat="43.63136" lon="-0.00084">
        <ele>125</ele>
        <time>2021-02-24T10:06:11Z</time>
      </trkpt>
      <trkpt lat="43.63166" lon="-0.00089">
        <ele>125</ele>
        <time>2021-02-24T10:06:35Z</time>
      </trkpt>
      <trkpt lat="43.63175" lon="-0.00091">
        <ele>125</ele>
        <time>2021-02-24T10:06:44Z</time>
      </trkpt>
      <trkpt lat="43.63179" lon="-0.0009">
        <ele>125</ele>
        <time>2021-02-24T10:06:47Z</time>
      </trkpt>
      <trkpt lat="43.63183" lon="-0.00092">
        <ele>125</ele>
        <time>2021-02-24T10:06:50Z</time>
      </trkpt>
      <trkpt lat="43.63221" lon="-0.001">
        <ele>125</ele>
        <time>2021-02-24T10:07:21Z</time>
      </trkpt>
      <trkpt lat="43.6325" lon="-0.00106">
        <ele>125</ele>
        <time>2021-02-24T10:07:44Z</time>
      </trkpt>
      <trkpt lat="43.63253" lon="-0.00108">
        <ele>125</ele>
        <time>2021-02-24T10:07:47Z</time>
      </trkpt>
      <trkpt lat="43.63255" lon="-0.00113">
        <ele>125</ele>
        <time>2021-02-24T10:07:51Z</time>
      </trkpt>
      <trkpt lat="43.63255" lon="-0.00125">
        <ele>125</ele>
        <time>2021-02-24T10:07:58Z</time>
      </trkpt>
      <trkpt lat="43.63253" lon="-0.00138">
        <ele>125</ele>
        <time>2021-02-24T10:08:07Z</time>
      </trkpt>
      <trkpt lat="43.63253" lon="-0.0015">
        <ele>125</ele>
        <time>2021-02-24T10:08:14Z</time>
      </trkpt>
      <trkpt lat="43.63252" lon="-0.00155">
        <ele>125</ele>
        <time>2021-02-24T10:08:17Z</time>
      </trkpt>
      <trkpt lat="43.63251" lon="-0.00171">
        <ele>125</ele>
        <time>2021-02-24T10:08:26Z</time>
      </trkpt>
      <trkpt lat="43.6325" lon="-0.00176">
        <ele>125</ele>
        <time>2021-02-24T10:08:29Z</time>
      </trkpt>
      <trkpt lat="43.63247" lon="-0.00202">
        <ele>125</ele>
        <time>2021-02-24T10:08:44Z</time>
      </trkpt>
      <trkpt lat="43.63247" lon="-0.00226">
        <ele>125</ele>
        <time>2021-02-24T10:08:57Z</time>
      </trkpt>
      <trkpt lat="43.63245" lon="-0.00236">
        <ele>125</ele>
        <time>2021-02-24T10:09:03Z</time>
      </trkpt>
      <trkpt lat="43.63246" lon="-0.00248">
        <ele>125</ele>
        <time>2021-02-24T10:09:10Z</time>
      </trkpt>
      <trkpt lat="43.63245" lon="-0.00264">
        <ele>124</ele>
        <time>2021-02-24T10:09:20Z</time>
      </trkpt>
      <trkpt lat="43.63246" lon="-0.00277">
        <ele>124</ele>
        <time>2021-02-24T10:09:26Z</time>
      </trkpt>
      <trkpt lat="43.63248" lon="-0.00281">
        <ele>124</ele>
        <time>2021-02-24T10:09:30Z</time>
      </trkpt>
      <trkpt lat="43.63244" lon="-0.00298">
        <ele>124</ele>
        <time>2021-02-24T10:09:43Z</time>
      </trkpt>
      <trkpt lat="43.63245" lon="-0.0031">
        <ele>124</ele>
        <time>2021-02-24T10:09:49Z</time>
      </trkpt>
      <trkpt lat="43.63247" lon="-0.00317">
        <ele>125</ele>
        <time>2021-02-24T10:10:09Z</time>
      </trkpt>
      <trkpt lat="43.63246" lon="-0.00327">
        <ele>124</ele>
        <time>2021-02-24T10:10:37Z</time>
      </trkpt>
      <trkpt lat="43.63244" lon="-0.00333">
        <ele>124</ele>
        <time>2021-02-24T10:10:46Z</time>
      </trkpt>
      <trkpt lat="43.63244" lon="-0.00362">
        <ele>124</ele>
        <time>2021-02-24T10:11:04Z</time>
      </trkpt>
      <trkpt lat="43.63245" lon="-0.00367">
        <ele>124</ele>
        <time>2021-02-24T10:11:07Z</time>
      </trkpt>
      <trkpt lat="43.63245" lon="-0.00373">
        <ele>124</ele>
        <time>2021-02-24T10:11:10Z</time>
      </trkpt>
      <trkpt lat="43.63245" lon="-0.0043">
        <ele>124</ele>
        <time>2021-02-24T10:11:43Z</time>
      </trkpt>
      <trkpt lat="43.63245" lon="-0.00441">
        <ele>124</ele>
        <time>2021-02-24T10:11:49Z</time>
      </trkpt>
      <trkpt lat="43.63244" lon="-0.00447">
        <ele>124</ele>
        <time>2021-02-24T10:11:53Z</time>
      </trkpt>
      <trkpt lat="43.63246" lon="-0.00492">
        <ele>124</ele>
        <time>2021-02-24T10:12:18Z</time>
      </trkpt>
      <trkpt lat="43.63249" lon="-0.00497">
        <ele>124</ele>
        <time>2021-02-24T10:12:21Z</time>
      </trkpt>
      <trkpt lat="43.63256" lon="-0.00503">
        <ele>124</ele>
        <time>2021-02-24T10:12:27Z</time>
      </trkpt>
      <trkpt lat="43.63277" lon="-0.00509">
        <ele>124</ele>
        <time>2021-02-24T10:12:43Z</time>
      </trkpt>
      <trkpt lat="43.63281" lon="-0.00509">
        <ele>124</ele>
        <time>2021-02-24T10:12:46Z</time>
      </trkpt>
      <trkpt lat="43.63301" lon="-0.00513">
        <ele>124</ele>
        <time>2021-02-24T10:13:02Z</time>
      </trkpt>
      <trkpt lat="43.63304" lon="-0.00513">
        <ele>124</ele>
        <time>2021-02-24T10:13:05Z</time>
      </trkpt>
      <trkpt lat="43.63329" lon="-0.0052">
        <ele>124</ele>
        <time>2021-02-24T10:13:25Z</time>
      </trkpt>
      <trkpt lat="43.63333" lon="-0.00519">
        <ele>124</ele>
        <time>2021-02-24T10:13:28Z</time>
      </trkpt>
      <trkpt lat="43.63342" lon="-0.00522">
        <ele>125</ele>
        <time>2021-02-24T10:13:35Z</time>
      </trkpt>
      <trkpt lat="43.63353" lon="-0.00524">
        <ele>124</ele>
        <time>2021-02-24T10:13:44Z</time>
      </trkpt>
      <trkpt lat="43.6336" lon="-0.00529">
        <ele>125</ele>
        <time>2021-02-24T10:13:52Z</time>
      </trkpt>
      <trkpt lat="43.63364" lon="-0.00538">
        <ele>125</ele>
        <time>2021-02-24T10:13:58Z</time>
      </trkpt>
      <trkpt lat="43.63367" lon="-0.00549">
        <ele>124</ele>
        <time>2021-02-24T10:14:06Z</time>
      </trkpt>
      <trkpt lat="43.63367" lon="-0.00559">
        <ele>124</ele>
        <time>2021-02-24T10:14:12Z</time>
      </trkpt>
      <trkpt lat="43.63368" lon="-0.00564">
        <ele>124</ele>
        <time>2021-02-24T10:14:15Z</time>
      </trkpt>
      <trkpt lat="43.63369" lon="-0.00574">
        <ele>124</ele>
        <time>2021-02-24T10:14:21Z</time>
      </trkpt>
      <trkpt lat="43.63372" lon="-0.00584">
        <ele>124</ele>
        <time>2021-02-24T10:14:30Z</time>
      </trkpt>
      <trkpt lat="43.63371" lon="-0.00589">
        <ele>124</ele>
        <time>2021-02-24T10:14:33Z</time>
      </trkpt>
      <trkpt lat="43.63373" lon="-0.006">
        <ele>124</ele>
        <time>2021-02-24T10:14:38Z</time>
      </trkpt>
      <trkpt lat="43.63376" lon="-0.00646">
        <ele>124</ele>
        <time>2021-02-24T10:15:05Z</time>
      </trkpt>
      <trkpt lat="43.63375" lon="-0.00652">
        <ele>124</ele>
        <time>2021-02-24T10:15:08Z</time>
      </trkpt>
      <trkpt lat="43.63376" lon="-0.00686">
        <ele>123</ele>
        <time>2021-02-24T10:15:28Z</time>
      </trkpt>
      <trkpt lat="43.63375" lon="-0.00691">
        <ele>123</ele>
        <time>2021-02-24T10:15:31Z</time>
      </trkpt>
      <trkpt lat="43.63376" lon="-0.00703">
        <ele>123</ele>
        <time>2021-02-24T10:15:37Z</time>
      </trkpt>
      <trkpt lat="43.63373" lon="-0.00729">
        <ele>123</ele>
        <time>2021-02-24T10:15:53Z</time>
      </trkpt>
      <trkpt lat="43.63374" lon="-0.00736">
        <ele>123</ele>
        <time>2021-02-24T10:16:01Z</time>
      </trkpt>
      <trkpt lat="43.63374" lon="-0.0074">
        <ele>123</ele>
        <time>2021-02-24T10:16:04Z</time>
      </trkpt>
      <trkpt lat="43.63373" lon="-0.00746">
        <ele>123</ele>
        <time>2021-02-24T10:16:38Z</time>
      </trkpt>
      <trkpt lat="43.63373" lon="-0.00751">
        <ele>123</ele>
        <time>2021-02-24T10:16:42Z</time>
      </trkpt>
      <trkpt lat="43.6337" lon="-0.00756">
        <ele>123</ele>
        <time>2021-02-24T10:17:02Z</time>
      </trkpt>
      <trkpt lat="43.63369" lon="-0.00765">
        <ele>123</ele>
        <time>2021-02-24T10:17:17Z</time>
      </trkpt>
      <trkpt lat="43.63361" lon="-0.0078">
        <ele>123</ele>
        <time>2021-02-24T10:17:32Z</time>
      </trkpt>
      <trkpt lat="43.63352" lon="-0.00794">
        <ele>123</ele>
        <time>2021-02-24T10:17:43Z</time>
      </trkpt>
      <trkpt lat="43.63347" lon="-0.00806">
        <ele>123</ele>
        <time>2021-02-24T10:17:51Z</time>
      </trkpt>
      <trkpt lat="43.6334" lon="-0.00815">
        <ele>124</ele>
        <time>2021-02-24T10:17:58Z</time>
      </trkpt>
      <trkpt lat="43.63337" lon="-0.0082">
        <ele>124</ele>
        <time>2021-02-24T10:18:02Z</time>
      </trkpt>
      <trkpt lat="43.63334" lon="-0.00823">
        <ele>124</ele>
        <time>2021-02-24T10:18:05Z</time>
      </trkpt>
      <trkpt lat="43.63328" lon="-0.00834">
        <ele>124</ele>
        <time>2021-02-24T10:18:12Z</time>
      </trkpt>
      <trkpt lat="43.63325" lon="-0.00843">
        <ele>125</ele>
        <time>2021-02-24T10:18:50Z</time>
      </trkpt>
      <trkpt lat="43.63323" lon="-0.00849">
        <ele>125</ele>
        <time>2021-02-24T10:18:55Z</time>
      </trkpt>
      <trkpt lat="43.63317" lon="-0.00855">
        <ele>125</ele>
        <time>2021-02-24T10:19:02Z</time>
      </trkpt>
      <trkpt lat="43.6331" lon="-0.0087">
        <ele>125</ele>
        <time>2021-02-24T10:19:13Z</time>
      </trkpt>
      <trkpt lat="43.63296" lon="-0.00908">
        <ele>125</ele>
        <time>2021-02-24T10:19:38Z</time>
      </trkpt>
      <trkpt lat="43.63296" lon="-0.00913">
        <ele>125</ele>
        <time>2021-02-24T10:19:41Z</time>
      </trkpt>
      <trkpt lat="43.63284" lon="-0.00963">
        <ele>125</ele>
        <time>2021-02-24T10:20:11Z</time>
      </trkpt>
      <trkpt lat="43.63283" lon="-0.00974">
        <ele>125</ele>
        <time>2021-02-24T10:20:17Z</time>
      </trkpt>
      <trkpt lat="43.6328" lon="-0.00985">
        <ele>125</ele>
        <time>2021-02-24T10:20:24Z</time>
      </trkpt>
      <trkpt lat="43.6328" lon="-0.0099">
        <ele>125</ele>
        <time>2021-02-24T10:20:27Z</time>
      </trkpt>
      <trkpt lat="43.63271" lon="-0.01046">
        <ele>125</ele>
        <time>2021-02-24T10:21:00Z</time>
      </trkpt>
      <trkpt lat="43.63269" lon="-0.01054">
        <ele>125</ele>
        <time>2021-02-24T10:21:06Z</time>
      </trkpt>
      <trkpt lat="43.63265" lon="-0.01065">
        <ele>125</ele>
        <time>2021-02-24T10:21:14Z</time>
      </trkpt>
      <trkpt lat="43.63259" lon="-0.01103">
        <ele>125</ele>
        <time>2021-02-24T10:21:37Z</time>
      </trkpt>
      <trkpt lat="43.63262" lon="-0.01119">
        <ele>125</ele>
        <time>2021-02-24T10:21:45Z</time>
      </trkpt>
      <trkpt lat="43.63263" lon="-0.01124">
        <ele>125</ele>
        <time>2021-02-24T10:21:48Z</time>
      </trkpt>
      <trkpt lat="43.63263" lon="-0.01132">
        <ele>125</ele>
        <time>2021-02-24T10:21:54Z</time>
      </trkpt>
      <trkpt lat="43.63261" lon="-0.01139">
        <ele>125</ele>
        <time>2021-02-24T10:22:01Z</time>
      </trkpt>
      <trkpt lat="43.63263" lon="-0.01148">
        <ele>124</ele>
        <time>2021-02-24T10:22:14Z</time>
      </trkpt>
      <trkpt lat="43.6327" lon="-0.01168">
        <ele>124</ele>
        <time>2021-02-24T10:22:27Z</time>
      </trkpt>
      <trkpt lat="43.63274" lon="-0.01173">
        <ele>124</ele>
        <time>2021-02-24T10:22:35Z</time>
      </trkpt>
      <trkpt lat="43.63279" lon="-0.0119">
        <ele>124</ele>
        <time>2021-02-24T10:22:45Z</time>
      </trkpt>
      <trkpt lat="43.63279" lon="-0.01196">
        <ele>123</ele>
        <time>2021-02-24T10:22:49Z</time>
      </trkpt>
      <trkpt lat="43.63284" lon="-0.01212">
        <ele>123</ele>
        <time>2021-02-24T10:23:00Z</time>
      </trkpt>
      <trkpt lat="43.63286" lon="-0.01218">
        <ele>123</ele>
        <time>2021-02-24T10:23:30Z</time>
      </trkpt>
      <trkpt lat="43.63289" lon="-0.01221">
        <ele>123</ele>
        <time>2021-02-24T10:23:33Z</time>
      </trkpt>
      <trkpt lat="43.63291" lon="-0.01227">
        <ele>123</ele>
        <time>2021-02-24T10:23:38Z</time>
      </trkpt>
      <trkpt lat="43.63303" lon="-0.01258">
        <ele>123</ele>
        <time>2021-02-24T10:24:02Z</time>
      </trkpt>
      <trkpt lat="43.63309" lon="-0.01292">
        <ele>123</ele>
        <time>2021-02-24T10:24:23Z</time>
      </trkpt>
      <trkpt lat="43.63311" lon="-0.01297">
        <ele>123</ele>
        <time>2021-02-24T10:24:26Z</time>
      </trkpt>
      <trkpt lat="43.63313" lon="-0.01341">
        <ele>122</ele>
        <time>2021-02-24T10:24:52Z</time>
      </trkpt>
      <trkpt lat="43.63311" lon="-0.01346">
        <ele>122</ele>
        <time>2021-02-24T10:24:56Z</time>
      </trkpt>
      <trkpt lat="43.63312" lon="-0.01358">
        <ele>122</ele>
        <time>2021-02-24T10:25:02Z</time>
      </trkpt>
      <trkpt lat="43.63313" lon="-0.01379">
        <ele>122</ele>
        <time>2021-02-24T10:25:17Z</time>
      </trkpt>
      <trkpt lat="43.63314" lon="-0.01385">
        <ele>122</ele>
        <time>2021-02-24T10:25:21Z</time>
      </trkpt>
      <trkpt lat="43.63314" lon="-0.01397">
        <ele>122</ele>
        <time>2021-02-24T10:25:28Z</time>
      </trkpt>
      <trkpt lat="43.63319" lon="-0.01419">
        <ele>122</ele>
        <time>2021-02-24T10:25:42Z</time>
      </trkpt>
      <trkpt lat="43.63325" lon="-0.01436">
        <ele>123</ele>
        <time>2021-02-24T10:25:54Z</time>
      </trkpt>
      <trkpt lat="43.6333" lon="-0.01442">
        <ele>123</ele>
        <time>2021-02-24T10:26:02Z</time>
      </trkpt>
      <trkpt lat="43.63344" lon="-0.01448">
        <ele>123</ele>
        <time>2021-02-24T10:26:12Z</time>
      </trkpt>
      <trkpt lat="43.63347" lon="-0.01448">
        <ele>123</ele>
        <time>2021-02-24T10:26:14Z</time>
      </trkpt>
      <trkpt lat="43.63377" lon="-0.01443">
        <ele>122</ele>
        <time>2021-02-24T10:26:39Z</time>
      </trkpt>
      <trkpt lat="43.6338" lon="-0.01444">
        <ele>123</ele>
        <time>2021-02-24T10:26:42Z</time>
      </trkpt>
      <trkpt lat="43.63384" lon="-0.01443">
        <ele>122</ele>
        <time>2021-02-24T10:26:45Z</time>
      </trkpt>
      <trkpt lat="43.63388" lon="-0.01444">
        <ele>122</ele>
        <time>2021-02-24T10:26:48Z</time>
      </trkpt>
      <trkpt lat="43.63429" lon="-0.01446">
        <ele>122</ele>
        <time>2021-02-24T10:27:19Z</time>
      </trkpt>
      <trkpt lat="43.6344" lon="-0.01448">
        <ele>122</ele>
        <time>2021-02-24T10:27:28Z</time>
      </trkpt>
      <trkpt lat="43.63463" lon="-0.01457">
        <ele>122</ele>
        <time>2021-02-24T10:27:50Z</time>
      </trkpt>
      <trkpt lat="43.63499" lon="-0.01462">
        <ele>121</ele>
        <time>2021-02-24T10:28:22Z</time>
      </trkpt>
      <trkpt lat="43.63504" lon="-0.01464">
        <ele>121</ele>
        <time>2021-02-24T10:28:29Z</time>
      </trkpt>
      <trkpt lat="43.63512" lon="-0.01472">
        <ele>121</ele>
        <time>2021-02-24T10:28:37Z</time>
      </trkpt>
      <trkpt lat="43.6353" lon="-0.01477">
        <ele>121</ele>
        <time>2021-02-24T10:28:50Z</time>
      </trkpt>
      <trkpt lat="43.63534" lon="-0.0148">
        <ele>121</ele>
        <time>2021-02-24T10:28:53Z</time>
      </trkpt>
      <trkpt lat="43.63543" lon="-0.01484">
        <ele>121</ele>
        <time>2021-02-24T10:28:59Z</time>
      </trkpt>
      <trkpt lat="43.6355" lon="-0.0149">
        <ele>121</ele>
        <time>2021-02-24T10:29:07Z</time>
      </trkpt>
      <trkpt lat="43.63561" lon="-0.01494">
        <ele>121</ele>
        <time>2021-02-24T10:29:16Z</time>
      </trkpt>
      <trkpt lat="43.63569" lon="-0.01502">
        <ele>121</ele>
        <time>2021-02-24T10:29:23Z</time>
      </trkpt>
      <trkpt lat="43.63601" lon="-0.01518">
        <ele>121</ele>
        <time>2021-02-24T10:29:51Z</time>
      </trkpt>
      <trkpt lat="43.63642" lon="-0.01544">
        <ele>120</ele>
        <time>2021-02-24T10:30:32Z</time>
      </trkpt>
      <trkpt lat="43.63667" lon="-0.01558">
        <ele>121</ele>
        <time>2021-02-24T10:30:53Z</time>
      </trkpt>
      <trkpt lat="43.6367" lon="-0.0156">
        <ele>121</ele>
        <time>2021-02-24T10:30:56Z</time>
      </trkpt>
      <trkpt lat="43.63684" lon="-0.01569">
        <ele>121</ele>
        <time>2021-02-24T10:31:10Z</time>
      </trkpt>
      <trkpt lat="43.63718" lon="-0.01601">
        <ele>121</ele>
        <time>2021-02-24T10:31:43Z</time>
      </trkpt>
      <trkpt lat="43.6373" lon="-0.01616">
        <ele>121</ele>
        <time>2021-02-24T10:31:55Z</time>
      </trkpt>
      <trkpt lat="43.63733" lon="-0.0162">
        <ele>121</ele>
        <time>2021-02-24T10:31:59Z</time>
      </trkpt>
      <trkpt lat="43.6374" lon="-0.01624">
        <ele>122</ele>
        <time>2021-02-24T10:32:07Z</time>
      </trkpt>
      <trkpt lat="43.63746" lon="-0.01629">
        <ele>122</ele>
        <time>2021-02-24T10:32:33Z</time>
      </trkpt>
      <trkpt lat="43.63752" lon="-0.01639">
        <ele>122</ele>
        <time>2021-02-24T10:32:42Z</time>
      </trkpt>
      <trkpt lat="43.63764" lon="-0.0165">
        <ele>122</ele>
        <time>2021-02-24T10:32:54Z</time>
      </trkpt>
      <trkpt lat="43.63769" lon="-0.01652">
        <ele>122</ele>
        <time>2021-02-24T10:32:58Z</time>
      </trkpt>
      <trkpt lat="43.6378" lon="-0.01671">
        <ele>122</ele>
        <time>2021-02-24T10:33:12Z</time>
      </trkpt>
      <trkpt lat="43.63783" lon="-0.01682">
        <ele>122</ele>
        <time>2021-02-24T10:33:21Z</time>
      </trkpt>
      <trkpt lat="43.63786" lon="-0.01688">
        <ele>123</ele>
        <time>2021-02-24T10:33:25Z</time>
      </trkpt>
      <trkpt lat="43.63802" lon="-0.01738">
        <ele>123</ele>
        <time>2021-02-24T10:33:58Z</time>
      </trkpt>
      <trkpt lat="43.63804" lon="-0.01744">
        <ele>124</ele>
        <time>2021-02-24T10:34:01Z</time>
      </trkpt>
      <trkpt lat="43.63807" lon="-0.01767">
        <ele>124</ele>
        <time>2021-02-24T10:34:15Z</time>
      </trkpt>
      <trkpt lat="43.63809" lon="-0.01772">
        <ele>124</ele>
        <time>2021-02-24T10:34:18Z</time>
      </trkpt>
      <trkpt lat="43.63812" lon="-0.01778">
        <ele>124</ele>
        <time>2021-02-24T10:34:22Z</time>
      </trkpt>
      <trkpt lat="43.63815" lon="-0.01782">
        <ele>124</ele>
        <time>2021-02-24T10:34:25Z</time>
      </trkpt>
      <trkpt lat="43.63833" lon="-0.01796">
        <ele>123</ele>
        <time>2021-02-24T10:34:40Z</time>
      </trkpt>
      <trkpt lat="43.63836" lon="-0.018">
        <ele>123</ele>
        <time>2021-02-24T10:34:44Z</time>
      </trkpt>
      <trkpt lat="43.63837" lon="-0.01805">
        <ele>123</ele>
        <time>2021-02-24T10:34:48Z</time>
      </trkpt>
      <trkpt lat="43.63836" lon="-0.01824">
        <ele>122</ele>
        <time>2021-02-24T10:35:01Z</time>
      </trkpt>
      <trkpt lat="43.63835" lon="-0.01829">
        <ele>122</ele>
        <time>2021-02-24T10:35:04Z</time>
      </trkpt>
      <trkpt lat="43.6383" lon="-0.01839">
        <ele>122</ele>
        <time>2021-02-24T10:35:11Z</time>
      </trkpt>
      <trkpt lat="43.63822" lon="-0.01888">
        <ele>122</ele>
        <time>2021-02-24T10:35:42Z</time>
      </trkpt>
      <trkpt lat="43.63821" lon="-0.01894">
        <ele>122</ele>
        <time>2021-02-24T10:35:45Z</time>
      </trkpt>
      <trkpt lat="43.63818" lon="-0.01901">
        <ele>122</ele>
        <time>2021-02-24T10:35:49Z</time>
      </trkpt>
      <trkpt lat="43.63817" lon="-0.01908">
        <ele>122</ele>
        <time>2021-02-24T10:35:52Z</time>
      </trkpt>
      <trkpt lat="43.63817" lon="-0.01914">
        <ele>122</ele>
        <time>2021-02-24T10:35:55Z</time>
      </trkpt>
      <trkpt lat="43.63815" lon="-0.0192">
        <ele>122</ele>
        <time>2021-02-24T10:35:58Z</time>
      </trkpt>
      <trkpt lat="43.63809" lon="-0.01928">
        <ele>122</ele>
        <time>2021-02-24T10:36:06Z</time>
      </trkpt>
      <trkpt lat="43.63806" lon="-0.01935">
        <ele>121</ele>
        <time>2021-02-24T10:36:11Z</time>
      </trkpt>
      <trkpt lat="43.63803" lon="-0.01939">
        <ele>121</ele>
        <time>2021-02-24T10:36:14Z</time>
      </trkpt>
      <trkpt lat="43.63801" lon="-0.01959">
        <ele>121</ele>
        <time>2021-02-24T10:36:24Z</time>
      </trkpt>
      <trkpt lat="43.63803" lon="-0.01971">
        <ele>121</ele>
        <time>2021-02-24T10:36:31Z</time>
      </trkpt>
      <trkpt lat="43.63809" lon="-0.01985">
        <ele>121</ele>
        <time>2021-02-24T10:36:37Z</time>
      </trkpt>
      <trkpt lat="43.63821" lon="-0.01996">
        <ele>121</ele>
        <time>2021-02-24T10:36:51Z</time>
      </trkpt>
      <trkpt lat="43.63832" lon="-0.01998">
        <ele>121</ele>
        <time>2021-02-24T10:37:00Z</time>
      </trkpt>
      <trkpt lat="43.63837" lon="-0.01997">
        <ele>121</ele>
        <time>2021-02-24T10:37:04Z</time>
      </trkpt>
      <trkpt lat="43.63842" lon="-0.01999">
        <ele>121</ele>
        <time>2021-02-24T10:37:08Z</time>
      </trkpt>
      <trkpt lat="43.63848" lon="-0.02">
        <ele>121</ele>
        <time>2021-02-24T10:37:13Z</time>
      </trkpt>
      <trkpt lat="43.63853" lon="-0.02001">
        <ele>121</ele>
        <time>2021-02-24T10:37:17Z</time>
      </trkpt>
      <trkpt lat="43.63858" lon="-0.02001">
        <ele>121</ele>
        <time>2021-02-24T10:37:21Z</time>
      </trkpt>
      <trkpt lat="43.63867" lon="-0.02003">
        <ele>121</ele>
        <time>2021-02-24T10:37:29Z</time>
      </trkpt>
      <trkpt lat="43.63878" lon="-0.01999">
        <ele>121</ele>
        <time>2021-02-24T10:37:38Z</time>
      </trkpt>
      <trkpt lat="43.63897" lon="-0.02">
        <ele>121</ele>
        <time>2021-02-24T10:37:50Z</time>
      </trkpt>
      <trkpt lat="43.63916" lon="-0.01992">
        <ele>121</ele>
        <time>2021-02-24T10:38:07Z</time>
      </trkpt>
      <trkpt lat="43.63925" lon="-0.01985">
        <ele>121</ele>
        <time>2021-02-24T10:38:15Z</time>
      </trkpt>
      <trkpt lat="43.63931" lon="-0.01984">
        <ele>121</ele>
        <time>2021-02-24T10:38:21Z</time>
      </trkpt>
      <trkpt lat="43.63942" lon="-0.01987">
        <ele>120</ele>
        <time>2021-02-24T10:38:27Z</time>
      </trkpt>
      <trkpt lat="43.63946" lon="-0.0199">
        <ele>120</ele>
        <time>2021-02-24T10:38:31Z</time>
      </trkpt>
      <trkpt lat="43.63957" lon="-0.01994">
        <ele>119</ele>
        <time>2021-02-24T10:38:43Z</time>
      </trkpt>
      <trkpt lat="43.63974" lon="-0.01991">
        <ele>119</ele>
        <time>2021-02-24T10:38:55Z</time>
      </trkpt>
      <trkpt lat="43.6399" lon="-0.01993">
        <ele>119</ele>
        <time>2021-02-24T10:39:09Z</time>
      </trkpt>
      <trkpt lat="43.63995" lon="-0.01992">
        <ele>119</ele>
        <time>2021-02-24T10:39:13Z</time>
      </trkpt>
      <trkpt lat="43.64" lon="-0.01993">
        <ele>119</ele>
        <time>2021-02-24T10:39:17Z</time>
      </trkpt>
      <trkpt lat="43.64008" lon="-0.01988">
        <ele>119</ele>
        <time>2021-02-24T10:39:24Z</time>
      </trkpt>
      <trkpt lat="43.64026" lon="-0.01983">
        <ele>119</ele>
        <time>2021-02-24T10:39:38Z</time>
      </trkpt>
      <trkpt lat="43.64029" lon="-0.0198">
        <ele>119</ele>
        <time>2021-02-24T10:39:41Z</time>
      </trkpt>
      <trkpt lat="43.64031" lon="-0.01976">
        <ele>119</ele>
        <time>2021-02-24T10:39:44Z</time>
      </trkpt>
      <trkpt lat="43.64036" lon="-0.01973">
        <ele>119</ele>
        <time>2021-02-24T10:39:48Z</time>
      </trkpt>
      <trkpt lat="43.64047" lon="-0.0196">
        <ele>119</ele>
        <time>2021-02-24T10:40:00Z</time>
      </trkpt>
      <trkpt lat="43.64051" lon="-0.01957">
        <ele>119</ele>
        <time>2021-02-24T10:40:08Z</time>
      </trkpt>
      <trkpt lat="43.64055" lon="-0.0196">
        <ele>120</ele>
        <time>2021-02-24T10:40:26Z</time>
      </trkpt>
      <trkpt lat="43.64058" lon="-0.01946">
        <ele>120</ele>
        <time>2021-02-24T10:40:41Z</time>
      </trkpt>
      <trkpt lat="43.64062" lon="-0.0194">
        <ele>120</ele>
        <time>2021-02-24T10:40:48Z</time>
      </trkpt>
      <trkpt lat="43.64064" lon="-0.01939">
        <ele>121</ele>
        <time>2021-02-24T10:42:43Z</time>
      </trkpt>
      <trkpt lat="43.64059" lon="-0.01932">
        <ele>121</ele>
        <time>2021-02-24T10:43:18Z</time>
      </trkpt>
      <trkpt lat="43.64051" lon="-0.01941">
        <ele>121</ele>
        <time>2021-02-24T10:43:27Z</time>
      </trkpt>
      <trkpt lat="43.64051" lon="-0.01947">
        <ele>121</ele>
        <time>2021-02-24T10:43:29Z</time>
      </trkpt>
      <trkpt lat="43.6406" lon="-0.01954">
        <ele>121</ele>
        <time>2021-02-24T10:43:41Z</time>
      </trkpt>
      <trkpt lat="43.64063" lon="-0.01952">
        <ele>121</ele>
        <time>2021-02-24T10:43:43Z</time>
      </trkpt>
    </trkseg>
  </trk>
</gpx>